Time,TemperatureF,DewpointF,PressureIn,WindDirection,WindDirectionDegrees,WindSpeedMPH,WindSpeedGustMPH,Humidity,HourlyPrecipIn,Conditions,Clouds,dailyrainin,SoftwareType,DateUTC
2013-10-31 00:00:00,56.3,53.1,30.00,WSW,248,1.8,3.6,89,0.00,,,0.00,WUHU216HW,2013-10-31 04:00:00,
2013-10-31 00:01:00,56.3,53.1,30.00,West,270,1.6,3.6,89,0.00,,,0.00,WUHU216HW,2013-10-31 04:01:00,
2013-10-31 00:02:00,56.3,53.1,30.00,West,270,1.6,3.6,89,0.00,,,0.00,WUHU216HW,2013-10-31 04:02:00,
2013-10-31 00:03:00,56.2,52.9,30.00,West,270,1.6,2.5,89,0.00,,,0.00,WUHU216HW,2013-10-31 04:03:00,
2013-10-31 00:07:00,56.2,52.9,29.99,West,270,2.9,3.1,89,0.00,,,0.00,WUHU216HW,2013-10-31 04:07:00,
2013-10-31 00:08:00,56.0,52.7,29.99,WSW,248,2.9,3.1,89,0.00,,,0.00,WUHU216HW,2013-10-31 04:08:00,
2013-10-31 00:09:00,56.0,52.7,30.00,West,270,2.7,3.1,89,0.00,,,0.00,WUHU216HW,2013-10-31 04:09:00,
2013-10-31 00:11:00,56.2,52.9,30.00,WSW,248,2.5,3.1,89,0.00,,,0.00,WUHU216HW,2013-10-31 04:11:00,
2013-10-31 00:12:00,56.2,52.9,30.00,WSW,248,2.9,3.1,89,0.00,,,0.00,WUHU216HW,2013-10-31 04:12:00,
2013-10-31 00:13:00,56.3,53.1,29.99,WSW,248,2.7,3.1,89,0.00,,,0.00,WUHU216HW,2013-10-31 04:13:00,
2013-10-31 00:14:00,56.3,53.1,29.99,WSW,248,3.6,3.6,89,0.00,,,0.00,WUHU216HW,2013-10-31 04:14:00,
2013-10-31 00:17:00,56.5,53.3,29.99,SW,225,3.4,3.8,89,0.00,,,0.00,WUHU216HW,2013-10-31 04:17:00,
2013-10-31 00:18:00,56.5,53.3,29.99,SW,225,2.9,3.8,89,0.00,,,0.00,WUHU216HW,2013-10-31 04:18:00,
2013-10-31 00:19:00,56.5,53.3,29.99,SSW,203,1.3,3.8,89,0.00,,,0.00,WUHU216HW,2013-10-31 04:19:00,
2013-10-31 00:20:00,56.3,52.8,29.98,SSW,203,1.8,3.8,88,0.00,,,0.00,WUHU216HW,2013-10-31 04:20:00,
2013-10-31 00:22:00,55.8,52.3,29.98,SW,225,2.5,3.8,88,0.00,,,0.00,WUHU216HW,2013-10-31 04:22:00,
2013-10-31 00:23:00,55.8,52.6,29.98,SW,225,2.5,3.8,89,0.00,,,0.00,WUHU216HW,2013-10-31 04:23:00,
2013-10-31 00:24:00,55.8,52.6,29.99,SW,225,2.9,3.8,89,0.00,,,0.00,WUHU216HW,2013-10-31 04:24:00,
2013-10-31 00:25:00,55.8,52.6,29.99,SW,225,2.9,3.8,89,0.00,,,0.00,WUHU216HW,2013-10-31 04:25:00,
2013-10-31 00:26:00,55.8,52.9,29.99,SW,225,3.6,3.6,90,0.00,,,0.00,WUHU216HW,2013-10-31 04:26:00,
2013-10-31 00:27:00,55.8,52.9,29.98,SW,225,3.1,3.6,90,0.00,,,0.00,WUHU216HW,2013-10-31 04:27:00,
2013-10-31 00:28:00,56.0,53.1,29.98,SW,225,3.1,3.6,90,0.00,,,0.00,WUHU216HW,2013-10-31 04:28:00,
2013-10-31 00:30:00,56.2,53.3,29.99,SW,225,2.7,3.6,90,0.00,,,0.00,WUHU216HW,2013-10-31 04:30:00,
2013-10-31 00:31:00,56.2,53.3,29.98,WSW,248,2.7,3.6,90,0.00,,,0.00,WUHU216HW,2013-10-31 04:31:00,
2013-10-31 00:32:00,56.2,53.3,29.98,WSW,248,1.8,3.6,90,0.00,,,0.00,WUHU216HW,2013-10-31 04:32:00,
2013-10-31 00:33:00,56.2,53.3,29.98,WSW,248,1.8,3.6,90,0.00,,,0.00,WUHU216HW,2013-10-31 04:33:00,
2013-10-31 00:34:00,56.2,53.3,29.98,SW,225,3.1,3.6,90,0.00,,,0.00,WUHU216HW,2013-10-31 04:34:00,
2013-10-31 00:35:00,56.2,53.3,29.98,SSW,203,1.6,3.6,90,0.00,,,0.00,WUHU216HW,2013-10-31 04:35:00,
2013-10-31 00:37:00,56.2,53.3,29.98,South,180,0.7,3.4,90,0.00,,,0.00,WUHU216HW,2013-10-31 04:37:00,
2013-10-31 00:38:00,56.2,53.3,29.98,SSW,203,0.4,3.4,90,0.00,,,0.00,WUHU216HW,2013-10-31 04:38:00,
2013-10-31 00:39:00,56.2,53.3,29.98,SSW,203,0.4,3.1,90,0.00,,,0.00,WUHU216HW,2013-10-31 04:39:00,
2013-10-31 00:40:00,56.2,53.3,29.98,SSW,203,0.2,3.1,90,0.00,,,0.00,WUHU216HW,2013-10-31 04:40:00,
2013-10-31 00:41:00,56.0,53.1,29.98,SSW,203,0.4,3.1,90,0.00,,,0.00,WUHU216HW,2013-10-31 04:41:00,
2013-10-31 00:42:00,56.0,52.7,29.98,SW,225,1.1,3.1,89,0.00,,,0.00,WUHU216HW,2013-10-31 04:42:00,
2013-10-31 00:44:00,56.0,52.7,29.98,SW,225,1.8,1.8,89,0.00,,,0.00,WUHU216HW,2013-10-31 04:44:00,
2013-10-31 00:45:00,55.8,52.9,29.98,SW,225,1.6,1.8,90,0.00,,,0.00,WUHU216HW,2013-10-31 04:45:00,
2013-10-31 00:47:00,56.0,53.1,29.98,SW,225,2.2,2.2,90,0.00,,,0.00,WUHU216HW,2013-10-31 04:47:00,
2013-10-31 00:48:00,56.0,53.1,29.98,SW,225,2.5,2.5,90,0.00,,,0.00,WUHU216HW,2013-10-31 04:48:00,
2013-10-31 00:49:00,56.0,53.1,29.98,SW,225,2.5,2.5,90,0.00,,,0.00,WUHU216HW,2013-10-31 04:49:00,
2013-10-31 00:51:00,55.8,52.9,29.98,SW,225,2.5,2.5,90,0.00,,,0.00,WUHU216HW,2013-10-31 04:51:00,
2013-10-31 00:52:00,56.0,53.4,29.98,SW,225,3.1,3.1,91,0.00,,,0.00,WUHU216HW,2013-10-31 04:52:00,
2013-10-31 00:54:00,56.0,53.4,29.98,SW,225,3.4,3.4,91,0.00,,,0.00,WUHU216HW,2013-10-31 04:54:00,
2013-10-31 00:55:00,56.0,53.4,29.98,SW,225,3.4,3.4,91,0.00,,,0.00,WUHU216HW,2013-10-31 04:55:00,
2013-10-31 00:56:00,56.2,53.3,29.98,SW,225,3.1,3.6,90,0.00,,,0.00,WUHU216HW,2013-10-31 04:56:00,
2013-10-31 00:58:00,56.0,53.1,29.98,SSW,203,2.7,3.6,90,0.00,,,0.00,WUHU216HW,2013-10-31 04:58:00,
2013-10-31 00:59:00,55.6,52.7,29.98,SW,225,2.7,3.6,90,0.00,,,0.00,WUHU216HW,2013-10-31 04:59:00,
2013-10-31 01:00:00,55.6,52.7,29.98,SW,225,3.4,3.6,90,0.00,,,0.00,WUHU216HW,2013-10-31 05:00:00,
2013-10-31 01:02:00,55.4,52.8,29.97,SW,225,2.9,3.6,91,0.00,,,0.00,WUHU216HW,2013-10-31 05:02:00,
2013-10-31 01:03:00,55.4,52.8,29.97,SW,225,3.1,3.6,91,0.00,,,0.00,WUHU216HW,2013-10-31 05:03:00,
2013-10-31 01:05:00,55.1,52.5,29.97,SW,225,3.4,3.6,91,0.00,,,0.00,WUHU216HW,2013-10-31 05:05:00,
2013-10-31 01:08:00,55.1,52.5,29.98,WSW,248,3.4,3.4,91,0.00,,,0.00,WUHU216HW,2013-10-31 05:08:00,
2013-10-31 01:09:00,55.1,52.5,29.98,WSW,248,3.4,3.4,91,0.00,,,0.00,WUHU216HW,2013-10-31 05:09:00,
2013-10-31 01:11:00,55.1,52.5,29.98,WSW,248,2.5,3.4,91,0.00,,,0.00,WUHU216HW,2013-10-31 05:11:00,
2013-10-31 01:12:00,55.1,52.5,29.98,WSW,248,2.5,3.4,91,0.00,,,0.00,WUHU216HW,2013-10-31 05:12:00,
2013-10-31 01:13:00,55.3,52.7,29.97,WSW,248,2.7,3.4,91,0.00,,,0.00,WUHU216HW,2013-10-31 05:13:00,
2013-10-31 01:14:00,55.3,52.7,29.97,WSW,248,2.7,3.4,91,0.00,,,0.00,WUHU216HW,2013-10-31 05:14:00,
2013-10-31 01:15:00,55.3,52.9,29.98,WSW,248,2.9,3.4,92,0.00,,,0.00,WUHU216HW,2013-10-31 05:15:00,
2013-10-31 01:18:00,55.6,53.3,29.97,WSW,248,3.1,3.4,92,0.00,,,0.00,WUHU216HW,2013-10-31 05:18:00,
2013-10-31 01:19:00,55.6,53.3,29.97,WSW,248,3.1,3.4,92,0.00,,,0.00,WUHU216HW,2013-10-31 05:19:00,
2013-10-31 01:20:00,55.6,53.3,29.97,West,270,2.5,3.4,92,0.00,,,0.00,WUHU216HW,2013-10-31 05:20:00,
2013-10-31 01:22:00,55.6,53.0,29.98,West,270,2.0,3.4,91,0.00,,,0.00,WUHU216HW,2013-10-31 05:22:00,
2013-10-31 01:24:00,55.6,53.0,29.98,West,270,1.8,3.4,91,0.00,,,0.00,WUHU216HW,2013-10-31 05:24:00,
2013-10-31 01:25:00,55.6,53.0,29.98,West,270,3.4,3.4,91,0.00,,,0.00,WUHU216HW,2013-10-31 05:25:00,
2013-10-31 01:26:00,55.6,53.0,29.97,West,270,3.8,3.8,91,0.00,,,0.00,WUHU216HW,2013-10-31 05:26:00,
2013-10-31 01:28:00,55.4,52.8,29.97,WSW,248,3.1,3.8,91,0.00,,,0.00,WUHU216HW,2013-10-31 05:28:00,
2013-10-31 01:29:00,55.4,52.8,29.97,WSW,248,2.7,4.0,91,0.00,,,0.00,WUHU216HW,2013-10-31 05:29:00,
2013-10-31 01:30:00,55.3,52.7,29.97,WNW,293,2.5,4.0,91,0.00,,,0.00,WUHU216HW,2013-10-31 05:30:00,
2013-10-31 01:31:00,55.3,52.7,29.97,West,270,2.5,4.0,91,0.00,,,0.00,WUHU216HW,2013-10-31 05:31:00,
2013-10-31 01:32:00,55.3,52.7,29.97,West,270,2.5,4.0,91,0.00,,,0.00,WUHU216HW,2013-10-31 05:32:00,
2013-10-31 01:33:00,55.1,52.5,29.97,West,270,2.7,4.0,91,0.00,,,0.00,WUHU216HW,2013-10-31 05:33:00,
2013-10-31 01:34:00,55.1,52.5,29.97,West,270,4.0,4.0,91,0.00,,,0.00,WUHU216HW,2013-10-31 05:34:00,
2013-10-31 01:35:00,55.1,52.5,29.97,West,270,4.0,4.0,91,0.00,,,0.00,WUHU216HW,2013-10-31 05:35:00,
2013-10-31 01:36:00,55.1,52.5,29.97,WSW,248,4.0,4.0,91,0.00,,,0.00,WUHU216HW,2013-10-31 05:36:00,
2013-10-31 01:37:00,55.3,52.7,29.98,West,270,2.7,4.0,91,0.00,,,0.00,WUHU216HW,2013-10-31 05:37:00,
2013-10-31 01:38:00,55.3,52.7,29.97,West,270,3.8,4.0,91,0.00,,,0.00,WUHU216HW,2013-10-31 05:38:00,
2013-10-31 01:39:00,55.3,52.7,29.97,West,270,3.8,4.0,91,0.00,,,0.00,WUHU216HW,2013-10-31 05:39:00,
2013-10-31 01:40:00,55.4,52.8,29.97,WSW,248,4.0,4.0,91,0.00,,,0.00,WUHU216HW,2013-10-31 05:40:00,
2013-10-31 01:41:00,55.4,52.8,29.97,WSW,248,4.0,4.0,91,0.00,,,0.00,WUHU216HW,2013-10-31 05:41:00,
2013-10-31 01:43:00,55.8,53.2,29.98,WSW,248,5.8,5.8,91,0.00,,,0.00,WUHU216HW,2013-10-31 05:43:00,
2013-10-31 01:44:00,55.8,53.2,29.97,West,270,3.8,5.8,91,0.00,,,0.00,WUHU216HW,2013-10-31 05:44:00,
2013-10-31 01:46:00,56.0,53.4,29.97,West,270,4.7,5.8,91,0.00,,,0.00,WUHU216HW,2013-10-31 05:46:00,
2013-10-31 01:47:00,56.0,53.4,29.97,West,270,4.7,5.8,91,0.00,,,0.00,WUHU216HW,2013-10-31 05:47:00,
2013-10-31 01:49:00,56.0,53.4,29.97,West,270,3.4,5.8,91,0.00,,,0.00,WUHU216HW,2013-10-31 05:49:00,
2013-10-31 01:50:00,56.2,53.6,29.97,West,270,2.9,5.8,91,0.00,,,0.00,WUHU216HW,2013-10-31 05:50:00,
2013-10-31 01:51:00,56.2,53.6,29.97,WSW,248,3.4,5.8,91,0.00,,,0.00,WUHU216HW,2013-10-31 05:51:00,
2013-10-31 01:52:00,56.2,53.6,29.97,WSW,248,3.4,4.7,91,0.00,,,0.00,WUHU216HW,2013-10-31 05:52:00,
2013-10-31 01:53:00,56.2,53.6,29.97,SW,225,2.2,4.7,91,0.00,,,0.00,WUHU216HW,2013-10-31 05:53:00,
2013-10-31 01:54:00,56.2,53.6,29.97,SW,225,0.7,4.7,91,0.00,,,0.00,WUHU216HW,2013-10-31 05:54:00,
2013-10-31 01:55:00,56.0,53.4,29.97,SW,225,1.1,4.7,91,0.00,,,0.00,WUHU216HW,2013-10-31 05:55:00,
2013-10-31 01:56:00,55.8,52.9,29.97,SSW,203,1.3,4.7,90,0.00,,,0.00,WUHU216HW,2013-10-31 05:56:00,
2013-10-31 01:57:00,55.8,52.9,29.97,SSW,203,1.6,4.0,90,0.00,,,0.00,WUHU216HW,2013-10-31 05:57:00,
2013-10-31 01:58:00,55.6,52.7,29.97,South,180,1.3,3.4,90,0.00,,,0.00,WUHU216HW,2013-10-31 05:58:00,
2013-10-31 01:59:00,55.3,52.4,29.97,SSW,203,1.8,3.4,90,0.00,,,0.00,WUHU216HW,2013-10-31 05:59:00,
2013-10-31 02:00:00,55.3,52.4,29.97,SW,225,1.6,3.4,90,0.00,,,0.00,WUHU216HW,2013-10-31 06:00:00,
2013-10-31 02:01:00,55.3,52.4,29.97,SW,225,1.6,3.4,90,0.00,,,0.00,WUHU216HW,2013-10-31 06:01:00,
2013-10-31 02:02:00,55.1,52.5,29.97,SW,225,2.2,2.2,91,0.00,,,0.00,WUHU216HW,2013-10-31 06:02:00,
2013-10-31 02:05:00,55.1,52.5,29.97,West,270,1.8,2.9,91,0.00,,,0.00,WUHU216HW,2013-10-31 06:05:00,
2013-10-31 02:06:00,55.1,52.5,29.97,West,270,1.8,2.9,91,0.00,,,0.00,WUHU216HW,2013-10-31 06:06:00,
2013-10-31 02:07:00,55.1,52.5,29.98,West,270,1.1,2.9,91,0.00,,,0.00,WUHU216HW,2013-10-31 06:07:00,
2013-10-31 02:08:00,55.1,52.5,29.98,West,270,1.6,3.4,91,0.00,,,0.00,WUHU216HW,2013-10-31 06:08:00,
2013-10-31 02:11:00,55.1,52.5,29.98,WSW,248,2.5,3.4,91,0.00,,,0.00,WUHU216HW,2013-10-31 06:11:00,
2013-10-31 02:12:00,55.1,52.5,29.98,WSW,248,2.0,3.4,91,0.00,,,0.00,WUHU216HW,2013-10-31 06:12:00,
2013-10-31 02:15:00,55.3,52.9,29.98,WSW,248,3.4,4.3,92,0.00,,,0.00,WUHU216HW,2013-10-31 06:15:00,
2013-10-31 02:16:00,55.4,53.1,29.98,WSW,248,4.0,4.3,92,0.00,,,0.00,WUHU216HW,2013-10-31 06:16:00,
2013-10-31 02:17:00,55.4,53.1,29.98,WSW,248,4.0,4.3,92,0.00,,,0.00,WUHU216HW,2013-10-31 06:17:00,
2013-10-31 02:18:00,55.4,53.1,29.98,WSW,248,3.1,4.3,92,0.00,,,0.00,WUHU216HW,2013-10-31 06:18:00,
2013-10-31 02:21:00,55.8,53.5,29.98,West,270,4.3,4.3,92,0.00,,,0.00,WUHU216HW,2013-10-31 06:21:00,
2013-10-31 02:22:00,56.0,53.6,29.98,West,270,5.1,5.1,92,0.00,,,0.00,WUHU216HW,2013-10-31 06:22:00,
2013-10-31 02:24:00,56.2,53.8,29.98,WSW,248,5.6,5.6,92,0.00,,,0.00,WUHU216HW,2013-10-31 06:24:00,
2013-10-31 02:26:00,56.3,54.0,29.98,WSW,248,3.6,5.6,92,0.00,,,0.00,WUHU216HW,2013-10-31 06:26:00,
2013-10-31 02:27:00,56.3,54.0,29.98,WSW,248,4.0,5.6,92,0.00,,,0.00,WUHU216HW,2013-10-31 06:27:00,
2013-10-31 02:28:00,56.5,53.9,29.98,SW,225,3.8,5.6,91,0.00,,,0.00,WUHU216HW,2013-10-31 06:28:00,
2013-10-31 02:29:00,56.7,54.1,29.97,WSW,248,3.4,5.6,91,0.00,,,0.00,WUHU216HW,2013-10-31 06:29:00,
2013-10-31 02:31:00,56.7,54.1,29.97,SW,225,3.8,5.6,91,0.00,,,0.00,WUHU216HW,2013-10-31 06:31:00,
2013-10-31 02:32:00,56.7,54.1,29.97,SW,225,3.8,5.6,91,0.00,,,0.00,WUHU216HW,2013-10-31 06:32:00,
2013-10-31 02:33:00,56.7,54.1,29.97,West,270,4.5,5.6,91,0.00,,,0.00,WUHU216HW,2013-10-31 06:33:00,
2013-10-31 02:35:00,56.7,54.1,29.97,WNW,293,4.0,4.5,91,0.00,,,0.00,WUHU216HW,2013-10-31 06:35:00,
2013-10-31 02:36:00,56.7,53.8,29.97,WSW,248,4.7,4.7,90,0.00,,,0.00,WUHU216HW,2013-10-31 06:36:00,
2013-10-31 02:37:00,56.9,54.0,29.97,West,270,3.6,4.7,90,0.00,,,0.00,WUHU216HW,2013-10-31 06:37:00,
2013-10-31 02:38:00,56.9,54.0,29.97,WSW,248,3.1,4.7,90,0.00,,,0.00,WUHU216HW,2013-10-31 06:38:00,
2013-10-31 02:39:00,56.9,54.0,29.97,SW,225,3.4,4.7,90,0.00,,,0.00,WUHU216HW,2013-10-31 06:39:00,
2013-10-31 02:42:00,56.9,54.0,29.96,South,180,1.3,4.7,90,0.00,,,0.00,WUHU216HW,2013-10-31 06:42:00,
2013-10-31 02:43:00,56.7,53.5,29.96,South,180,1.8,4.7,89,0.00,,,0.00,WUHU216HW,2013-10-31 06:43:00,
2013-10-31 02:44:00,56.5,53.3,29.96,SSW,203,2.0,4.7,89,0.00,,,0.00,WUHU216HW,2013-10-31 06:44:00,
2013-10-31 02:45:00,56.5,53.3,29.96,SSW,203,2.0,4.7,89,0.00,,,0.00,WUHU216HW,2013-10-31 06:45:00,
2013-10-31 02:47:00,56.2,52.9,29.96,SW,225,3.4,3.4,89,0.00,,,0.00,WUHU216HW,2013-10-31 06:47:00,
2013-10-31 02:49:00,56.0,53.1,29.96,West,270,3.1,3.4,90,0.00,,,0.00,WUHU216HW,2013-10-31 06:49:00,
2013-10-31 02:50:00,56.0,53.1,29.96,West,270,3.1,3.4,90,0.00,,,0.00,WUHU216HW,2013-10-31 06:50:00,
2013-10-31 02:53:00,56.2,53.6,29.96,SSE,158,1.6,3.4,91,0.00,,,0.00,WUHU216HW,2013-10-31 06:53:00,
2013-10-31 02:54:00,56.2,53.6,29.96,SSE,158,1.6,3.4,91,0.00,,,0.00,WUHU216HW,2013-10-31 06:54:00,
2013-10-31 02:55:00,56.0,53.1,29.96,SW,225,1.1,3.4,90,0.00,,,0.00,WUHU216HW,2013-10-31 06:55:00,
2013-10-31 02:58:00,55.8,52.9,29.96,WSW,248,1.3,3.4,90,0.00,,,0.00,WUHU216HW,2013-10-31 06:58:00,
2013-10-31 02:59:00,55.8,52.9,29.96,NW,315,2.5,3.4,90,0.00,,,0.00,WUHU216HW,2013-10-31 06:59:00,
2013-10-31 03:00:00,55.8,52.9,29.96,WNW,293,3.1,3.4,90,0.00,,,0.00,WUHU216HW,2013-10-31 07:00:00,
2013-10-31 03:01:00,55.8,52.9,29.96,West,270,4.0,4.0,90,0.00,,,0.00,WUHU216HW,2013-10-31 07:01:00,
2013-10-31 03:03:00,55.8,52.9,29.96,West,270,3.1,4.0,90,0.00,,,0.00,WUHU216HW,2013-10-31 07:03:00,
2013-10-31 03:05:00,55.8,52.9,29.96,West,270,2.7,4.0,90,0.00,,,0.00,WUHU216HW,2013-10-31 07:05:00,
2013-10-31 03:06:00,55.8,52.9,29.96,NW,315,2.0,4.0,90,0.00,,,0.00,WUHU216HW,2013-10-31 07:06:00,
2013-10-31 03:07:00,55.8,52.9,29.96,WNW,293,2.2,4.0,90,0.00,,,0.00,WUHU216HW,2013-10-31 07:07:00,
2013-10-31 03:09:00,55.8,52.9,29.96,NW,315,2.5,4.0,90,0.00,,,0.00,WUHU216HW,2013-10-31 07:09:00,
2013-10-31 03:10:00,55.8,52.9,29.96,West,270,1.1,4.0,90,0.00,,,0.00,WUHU216HW,2013-10-31 07:10:00,
2013-10-31 03:11:00,55.8,52.9,29.96,West,270,1.1,3.1,90,0.00,,,0.00,WUHU216HW,2013-10-31 07:11:00,
2013-10-31 03:13:00,55.8,52.9,29.96,SW,225,2.5,3.1,90,0.00,,,0.00,WUHU216HW,2013-10-31 07:13:00,
2013-10-31 03:15:00,55.8,53.2,29.95,South,180,1.6,2.5,91,0.00,,,0.00,WUHU216HW,2013-10-31 07:15:00,
2013-10-31 03:16:00,55.8,53.2,29.95,South,180,1.6,2.5,91,0.00,,,0.00,WUHU216HW,2013-10-31 07:16:00,
2013-10-31 03:17:00,55.8,53.2,29.95,South,180,1.8,2.5,91,0.00,,,0.00,WUHU216HW,2013-10-31 07:17:00,
2013-10-31 03:18:00,55.8,53.2,29.95,SSW,203,1.8,2.5,91,0.00,,,0.00,WUHU216HW,2013-10-31 07:18:00,
2013-10-31 03:19:00,55.6,53.0,29.95,SW,225,1.3,2.5,91,0.00,,,0.00,WUHU216HW,2013-10-31 07:19:00,
2013-10-31 03:20:00,55.6,53.0,29.95,SW,225,1.8,2.5,91,0.00,,,0.00,WUHU216HW,2013-10-31 07:20:00,
2013-10-31 03:21:00,55.6,53.0,29.95,SW,225,1.8,2.5,91,0.00,,,0.00,WUHU216HW,2013-10-31 07:21:00,
2013-10-31 03:23:00,55.4,52.8,29.95,SW,225,1.8,2.0,91,0.00,,,0.00,WUHU216HW,2013-10-31 07:23:00,
2013-10-31 03:24:00,55.4,52.8,29.95,WSW,248,3.1,3.1,91,0.00,,,0.00,WUHU216HW,2013-10-31 07:24:00,
2013-10-31 03:26:00,55.6,53.0,29.95,WSW,248,3.8,3.8,91,0.00,,,0.00,WUHU216HW,2013-10-31 07:26:00,
2013-10-31 03:28:00,55.8,53.5,29.95,WSW,248,1.8,3.8,92,0.00,,,0.00,WUHU216HW,2013-10-31 07:28:00,
2013-10-31 03:29:00,55.8,53.5,29.95,SSW,203,1.8,3.8,92,0.00,,,0.00,WUHU216HW,2013-10-31 07:29:00,
2013-10-31 03:32:00,55.8,53.2,29.95,SE,135,1.1,3.8,91,0.00,,,0.00,WUHU216HW,2013-10-31 07:32:00,
2013-10-31 03:33:00,55.8,53.2,29.95,SSE,158,0.2,3.8,91,0.00,,,0.00,WUHU216HW,2013-10-31 07:33:00,
2013-10-31 03:34:00,55.8,53.2,29.95,South,180,1.1,3.8,91,0.00,,,0.00,WUHU216HW,2013-10-31 07:34:00,
2013-10-31 03:35:00,55.8,53.2,29.95,South,180,1.1,3.8,91,0.00,,,0.00,WUHU216HW,2013-10-31 07:35:00,
2013-10-31 03:36:00,55.8,53.2,29.95,SSW,203,1.8,1.8,91,0.00,,,0.00,WUHU216HW,2013-10-31 07:36:00,
2013-10-31 03:37:00,55.8,53.2,29.95,SSW,203,1.8,1.8,91,0.00,,,0.00,WUHU216HW,2013-10-31 07:37:00,
2013-10-31 03:38:00,55.8,53.2,29.95,SW,225,2.2,2.5,91,0.00,,,0.00,WUHU216HW,2013-10-31 07:38:00,
2013-10-31 03:39:00,55.8,53.2,29.95,SW,225,2.2,2.5,91,0.00,,,0.00,WUHU216HW,2013-10-31 07:39:00,
2013-10-31 03:40:00,55.6,53.0,29.95,SSW,203,2.9,2.9,91,0.00,,,0.00,WUHU216HW,2013-10-31 07:40:00,
2013-10-31 03:42:00,55.8,53.2,29.95,SSW,203,3.6,3.6,91,0.00,,,0.00,WUHU216HW,2013-10-31 07:42:00,
2013-10-31 03:44:00,55.6,53.0,29.95,SW,225,3.4,4.0,91,0.00,,,0.00,WUHU216HW,2013-10-31 07:44:00,
2013-10-31 03:45:00,55.4,52.8,29.95,SW,225,3.1,4.0,91,0.00,,,0.00,WUHU216HW,2013-10-31 07:45:00,
2013-10-31 03:46:00,55.3,52.7,29.95,SSW,203,2.9,4.0,91,0.00,,,0.00,WUHU216HW,2013-10-31 07:46:00,
2013-10-31 03:50:00,55.1,52.5,29.95,SW,225,4.3,4.3,91,0.00,,,0.00,WUHU216HW,2013-10-31 07:50:00,
2013-10-31 03:51:00,55.1,52.7,29.95,SW,225,3.8,4.3,92,0.00,,,0.00,WUHU216HW,2013-10-31 07:51:00,
2013-10-31 03:52:00,55.1,52.7,29.95,SW,225,4.3,4.3,92,0.00,,,0.00,WUHU216HW,2013-10-31 07:52:00,
2013-10-31 03:54:00,55.1,52.7,29.95,SW,225,3.1,4.3,92,0.00,,,0.00,WUHU216HW,2013-10-31 07:54:00,
2013-10-31 03:55:00,55.1,52.7,29.95,SW,225,3.1,4.3,92,0.00,,,0.00,WUHU216HW,2013-10-31 07:55:00,
2013-10-31 03:56:00,55.1,52.7,29.95,SW,225,3.4,4.3,92,0.00,,,0.00,WUHU216HW,2013-10-31 07:56:00,
2013-10-31 03:57:00,55.1,52.7,29.95,SW,225,3.8,4.3,92,0.00,,,0.00,WUHU216HW,2013-10-31 07:57:00,
2013-10-31 03:59:00,55.1,52.7,29.95,West,270,3.4,4.3,92,0.00,,,0.00,WUHU216HW,2013-10-31 07:59:00,
2013-10-31 04:00:00,55.3,52.9,29.95,West,270,5.1,5.1,92,0.00,,,0.00,WUHU216HW,2013-10-31 08:00:00,
2013-10-31 04:01:00,55.4,53.1,29.95,West,270,4.5,5.1,92,0.00,,,0.00,WUHU216HW,2013-10-31 08:01:00,
2013-10-31 04:02:00,55.4,53.1,29.95,West,270,4.5,5.1,92,0.00,,,0.00,WUHU216HW,2013-10-31 08:02:00,
2013-10-31 04:04:00,55.6,53.3,29.95,WSW,248,2.7,5.1,92,0.00,,,0.00,WUHU216HW,2013-10-31 08:04:00,
2013-10-31 04:05:00,55.8,53.5,29.95,SW,225,4.7,5.1,92,0.00,,,0.00,WUHU216HW,2013-10-31 08:05:00,
2013-10-31 04:06:00,55.8,53.5,29.95,SSE,158,2.2,5.1,92,0.00,,,0.00,WUHU216HW,2013-10-31 08:06:00,
2013-10-31 04:07:00,55.6,53.3,29.95,SSW,203,1.3,5.1,92,0.00,,,0.00,WUHU216HW,2013-10-31 08:07:00,
2013-10-31 04:08:00,55.6,53.0,29.95,SSW,203,1.6,5.1,91,0.00,,,0.00,WUHU216HW,2013-10-31 08:08:00,
2013-10-31 04:09:00,55.4,52.8,29.95,SSW,203,1.8,5.1,91,0.00,,,0.00,WUHU216HW,2013-10-31 08:09:00,
2013-10-31 04:10:00,55.4,52.8,29.95,SSW,203,2.0,4.7,91,0.00,,,0.00,WUHU216HW,2013-10-31 08:10:00,
2013-10-31 04:12:00,55.1,52.5,29.95,SW,225,2.5,4.7,91,0.00,,,0.00,WUHU216HW,2013-10-31 08:12:00,
2013-10-31 04:13:00,55.1,52.5,29.95,SW,225,2.5,4.7,91,0.00,,,0.00,WUHU216HW,2013-10-31 08:13:00,
2013-10-31 04:14:00,54.9,52.3,29.95,SSW,203,1.8,4.7,91,0.00,,,0.00,WUHU216HW,2013-10-31 08:14:00,
2013-10-31 04:15:00,54.7,52.1,29.95,SSW,203,1.6,2.5,91,0.00,,,0.00,WUHU216HW,2013-10-31 08:15:00,
2013-10-31 04:16:00,54.7,52.1,29.95,SW,225,1.8,2.5,91,0.00,,,0.00,WUHU216HW,2013-10-31 08:16:00,
2013-10-31 04:17:00,54.5,51.9,29.95,SW,225,2.5,2.5,91,0.00,,,0.00,WUHU216HW,2013-10-31 08:17:00,
2013-10-31 04:19:00,54.4,51.8,29.95,SSW,203,2.5,2.5,91,0.00,,,0.00,WUHU216HW,2013-10-31 08:19:00,
2013-10-31 04:20:00,54.4,52.0,29.94,SSW,203,2.0,2.5,92,0.00,,,0.00,WUHU216HW,2013-10-31 08:20:00,
2013-10-31 04:22:00,54.4,52.0,29.95,SW,225,3.4,3.4,92,0.00,,,0.00,WUHU216HW,2013-10-31 08:22:00,
2013-10-31 04:24:00,54.2,51.8,29.94,SW,225,3.8,3.8,92,0.00,,,0.00,WUHU216HW,2013-10-31 08:24:00,
2013-10-31 04:26:00,54.0,51.7,29.94,SW,225,2.9,4.0,92,0.00,,,0.00,WUHU216HW,2013-10-31 08:26:00,
2013-10-31 04:27:00,54.0,51.7,29.94,SSW,203,2.0,4.0,92,0.00,,,0.00,WUHU216HW,2013-10-31 08:27:00,
2013-10-31 04:29:00,54.0,51.7,29.94,SSW,203,1.8,4.0,92,0.00,,,0.00,WUHU216HW,2013-10-31 08:29:00,
2013-10-31 04:31:00,53.8,51.5,29.94,SW,225,2.2,4.0,92,0.00,,,0.00,WUHU216HW,2013-10-31 08:31:00,
2013-10-31 04:33:00,54.0,52.0,29.94,SW,225,2.0,4.0,93,0.00,,,0.00,WUHU216HW,2013-10-31 08:33:00,
2013-10-31 04:34:00,54.0,52.0,29.94,SW,225,1.8,3.4,93,0.00,,,0.00,WUHU216HW,2013-10-31 08:34:00,
2013-10-31 04:35:00,54.2,52.2,29.94,SW,225,1.8,2.9,93,0.00,,,0.00,WUHU216HW,2013-10-31 08:35:00,
2013-10-31 04:36:00,54.2,52.2,29.94,SW,225,1.8,2.9,93,0.00,,,0.00,WUHU216HW,2013-10-31 08:36:00,
2013-10-31 04:39:00,54.2,52.2,29.93,SW,225,2.0,2.5,93,0.00,,,0.00,WUHU216HW,2013-10-31 08:39:00,
2013-10-31 04:40:00,54.2,52.2,29.93,SW,225,2.2,2.5,93,0.00,,,0.00,WUHU216HW,2013-10-31 08:40:00,
2013-10-31 04:41:00,54.2,52.2,29.93,SSW,203,1.8,2.5,93,0.00,,,0.00,WUHU216HW,2013-10-31 08:41:00,
2013-10-31 04:43:00,54.2,52.2,29.93,SSW,203,1.1,2.2,93,0.00,,,0.00,WUHU216HW,2013-10-31 08:43:00,
2013-10-31 04:44:00,54.2,52.2,29.93,SSW,203,1.1,2.2,93,0.00,,,0.00,WUHU216HW,2013-10-31 08:44:00,
2013-10-31 04:46:00,54.0,52.0,29.93,SW,225,1.8,2.2,93,0.00,,,0.00,WUHU216HW,2013-10-31 08:46:00,
2013-10-31 04:47:00,54.0,52.0,29.93,WSW,248,1.8,2.2,93,0.00,,,0.00,WUHU216HW,2013-10-31 08:47:00,
2013-10-31 04:49:00,54.0,52.0,29.93,WSW,248,2.9,2.9,93,0.00,,,0.00,WUHU216HW,2013-10-31 08:49:00,
2013-10-31 04:51:00,54.4,52.4,29.93,SW,225,2.5,3.1,93,0.00,,,0.00,WUHU216HW,2013-10-31 08:51:00,
2013-10-31 04:52:00,54.4,52.4,29.93,SW,225,2.5,3.1,93,0.00,,,0.00,WUHU216HW,2013-10-31 08:52:00,
2013-10-31 04:53:00,54.4,52.4,29.93,South,180,1.8,3.1,93,0.00,,,0.00,WUHU216HW,2013-10-31 08:53:00,
2013-10-31 04:55:00,54.4,52.4,29.93,South,180,1.1,3.1,93,0.00,,,0.00,WUHU216HW,2013-10-31 08:55:00,
2013-10-31 04:57:00,54.2,51.8,29.93,SSE,158,2.2,3.1,92,0.00,,,0.00,WUHU216HW,2013-10-31 08:57:00,
2013-10-31 04:59:00,54.0,52.0,29.93,SSE,158,2.5,3.1,93,0.00,,,0.00,WUHU216HW,2013-10-31 08:59:00,
2013-10-31 05:00:00,54.0,52.0,29.93,SSE,158,2.7,3.1,93,0.00,,,0.00,WUHU216HW,2013-10-31 09:00:00,
2013-10-31 05:01:00,54.0,52.0,29.93,SSE,158,2.2,3.1,93,0.00,,,0.00,WUHU216HW,2013-10-31 09:01:00,
2013-10-31 05:03:00,54.0,52.0,29.92,SSW,203,2.5,3.1,93,0.00,,,0.00,WUHU216HW,2013-10-31 09:03:00,
2013-10-31 05:04:00,54.0,52.0,29.92,South,180,2.2,3.1,93,0.00,,,0.00,WUHU216HW,2013-10-31 09:04:00,
2013-10-31 05:05:00,54.0,52.0,29.92,South,180,2.2,3.1,93,0.00,,,0.00,WUHU216HW,2013-10-31 09:05:00,
2013-10-31 05:06:00,54.0,52.0,29.92,SSW,203,2.2,3.1,93,0.00,,,0.00,WUHU216HW,2013-10-31 09:06:00,
2013-10-31 05:07:00,54.0,52.0,29.92,SSW,203,3.1,3.1,93,0.00,,,0.00,WUHU216HW,2013-10-31 09:07:00,
2013-10-31 05:08:00,54.0,52.0,29.92,SSW,203,1.8,3.1,93,0.00,,,0.00,WUHU216HW,2013-10-31 09:08:00,
2013-10-31 05:09:00,54.0,52.0,29.92,SSW,203,2.5,3.1,93,0.00,,,0.00,WUHU216HW,2013-10-31 09:09:00,
2013-10-31 05:11:00,54.0,52.0,29.92,SSW,203,2.0,3.1,93,0.00,,,0.00,WUHU216HW,2013-10-31 09:11:00,
2013-10-31 05:12:00,54.0,52.0,29.92,SW,225,2.7,3.1,93,0.00,,,0.00,WUHU216HW,2013-10-31 09:12:00,
2013-10-31 05:14:00,53.8,51.9,29.92,SW,225,3.6,3.6,93,0.00,,,0.00,WUHU216HW,2013-10-31 09:14:00,
2013-10-31 05:15:00,53.8,51.9,29.92,SW,225,3.6,3.6,93,0.00,,,0.00,WUHU216HW,2013-10-31 09:15:00,
2013-10-31 05:17:00,53.8,51.9,29.92,SSW,203,2.7,3.8,93,0.00,,,0.00,WUHU216HW,2013-10-31 09:17:00,
2013-10-31 05:18:00,53.6,51.7,29.92,SSW,203,2.0,3.8,93,0.00,,,0.00,WUHU216HW,2013-10-31 09:18:00,
2013-10-31 05:19:00,53.6,51.7,29.92,SSW,203,2.0,3.8,93,0.00,,,0.00,WUHU216HW,2013-10-31 09:19:00,
2013-10-31 05:20:00,53.6,51.7,29.92,WSW,248,2.7,3.8,93,0.00,,,0.00,WUHU216HW,2013-10-31 09:20:00,
2013-10-31 05:22:00,53.6,51.7,29.92,WSW,248,3.1,3.8,93,0.00,,,0.00,WUHU216HW,2013-10-31 09:22:00,
2013-10-31 05:23:00,53.6,51.7,29.92,West,270,3.1,3.8,93,0.00,,,0.00,WUHU216HW,2013-10-31 09:23:00,
2013-10-31 05:24:00,53.6,51.7,29.92,West,270,3.1,3.8,93,0.00,,,0.00,WUHU216HW,2013-10-31 09:24:00,
2013-10-31 05:25:00,53.8,52.1,29.92,West,270,2.5,3.6,94,0.00,,,0.00,WUHU216HW,2013-10-31 09:25:00,
2013-10-31 05:26:00,53.8,52.1,29.92,West,270,2.5,3.6,94,0.00,,,0.00,WUHU216HW,2013-10-31 09:26:00,
2013-10-31 05:27:00,54.0,52.3,29.93,WSW,248,3.4,3.6,94,0.00,,,0.00,WUHU216HW,2013-10-31 09:27:00,
2013-10-31 05:29:00,54.0,52.0,29.93,WNW,293,2.7,4.0,93,0.00,,,0.00,WUHU216HW,2013-10-31 09:29:00,
2013-10-31 05:30:00,54.0,52.0,29.93,WNW,293,2.7,4.0,93,0.00,,,0.00,WUHU216HW,2013-10-31 09:30:00,
2013-10-31 05:31:00,54.0,52.0,29.93,West,270,4.0,4.0,93,0.00,,,0.00,WUHU216HW,2013-10-31 09:31:00,
2013-10-31 05:32:00,54.0,52.0,29.93,WSW,248,3.4,4.0,93,0.00,,,0.00,WUHU216HW,2013-10-31 09:32:00,
2013-10-31 05:33:00,54.2,52.2,29.93,WSW,248,3.4,4.0,93,0.00,,,0.00,WUHU216HW,2013-10-31 09:33:00,
2013-10-31 05:34:00,54.2,52.2,29.93,SSW,203,3.1,4.0,93,0.00,,,0.00,WUHU216HW,2013-10-31 09:34:00,
2013-10-31 05:37:00,54.4,52.7,29.93,West,270,3.1,4.0,94,0.00,,,0.00,WUHU216HW,2013-10-31 09:37:00,
2013-10-31 05:38:00,54.5,52.8,29.93,WSW,248,3.4,4.0,94,0.00,,,0.00,WUHU216HW,2013-10-31 09:38:00,
2013-10-31 05:39:00,54.9,53.2,29.93,SW,225,2.9,4.5,94,0.00,,,0.00,WUHU216HW,2013-10-31 09:39:00,
2013-10-31 05:40:00,54.9,53.2,29.93,SW,225,2.9,4.5,94,0.00,,,0.00,WUHU216HW,2013-10-31 09:40:00,
2013-10-31 05:42:00,55.1,53.1,29.93,WSW,248,3.4,4.5,93,0.00,,,0.00,WUHU216HW,2013-10-31 09:42:00,
2013-10-31 05:43:00,55.1,53.1,29.93,WSW,248,2.5,4.5,93,0.00,,,0.00,WUHU216HW,2013-10-31 09:43:00,
2013-10-31 05:44:00,55.3,53.3,29.93,WSW,248,4.0,4.5,93,0.00,,,0.00,WUHU216HW,2013-10-31 09:44:00,
2013-10-31 05:45:00,55.3,53.3,29.93,WSW,248,4.0,4.5,93,0.00,,,0.00,WUHU216HW,2013-10-31 09:45:00,
2013-10-31 05:46:00,55.4,53.5,29.93,WSW,248,4.7,4.7,93,0.00,,,0.00,WUHU216HW,2013-10-31 09:46:00,
2013-10-31 05:48:00,55.8,53.8,29.92,SW,225,4.9,4.9,93,0.00,,,0.00,WUHU216HW,2013-10-31 09:48:00,
2013-10-31 05:50:00,55.8,53.8,29.92,WSW,248,2.0,4.9,93,0.00,,,0.00,WUHU216HW,2013-10-31 09:50:00,
2013-10-31 05:51:00,55.8,53.5,29.92,SSW,203,2.0,4.9,92,0.00,,,0.00,WUHU216HW,2013-10-31 09:51:00,
2013-10-31 05:52:00,55.8,53.5,29.92,SW,225,2.5,4.9,92,0.00,,,0.00,WUHU216HW,2013-10-31 09:52:00,
2013-10-31 05:55:00,55.1,52.7,29.93,SW,225,3.1,4.9,92,0.00,,,0.00,WUHU216HW,2013-10-31 09:55:00,
2013-10-31 05:56:00,55.1,52.7,29.93,SW,225,3.1,4.9,92,0.00,,,0.00,WUHU216HW,2013-10-31 09:56:00,
2013-10-31 05:57:00,55.1,52.7,29.93,SSW,203,3.4,4.9,92,0.00,,,0.00,WUHU216HW,2013-10-31 09:57:00,
2013-10-31 05:58:00,55.1,52.7,29.93,SW,225,3.4,3.8,92,0.00,,,0.00,WUHU216HW,2013-10-31 09:58:00,
2013-10-31 06:01:00,54.9,52.6,29.93,SSW,203,1.1,3.4,92,0.00,,,0.00,WUHU216HW,2013-10-31 10:01:00,
2013-10-31 06:02:00,54.9,52.6,29.93,SSW,203,1.1,3.4,92,0.00,,,0.00,WUHU216HW,2013-10-31 10:02:00,
2013-10-31 06:03:00,54.9,52.6,29.93,SW,225,1.8,3.4,92,0.00,,,0.00,WUHU216HW,2013-10-31 10:03:00,
2013-10-31 06:04:00,54.9,52.6,29.93,SW,225,1.8,3.4,92,0.00,,,0.00,WUHU216HW,2013-10-31 10:04:00,
2013-10-31 06:05:00,54.7,52.4,29.93,SW,225,2.7,3.4,92,0.00,,,0.00,WUHU216HW,2013-10-31 10:05:00,
2013-10-31 06:06:00,54.7,52.4,29.93,SW,225,3.1,3.4,92,0.00,,,0.00,WUHU216HW,2013-10-31 10:06:00,
2013-10-31 06:09:00,54.5,52.2,29.93,SSW,203,2.7,3.1,92,0.00,,,0.00,WUHU216HW,2013-10-31 10:09:00,
2013-10-31 06:11:00,54.5,52.2,29.93,SW,225,2.5,3.1,92,0.00,,,0.00,WUHU216HW,2013-10-31 10:11:00,
2013-10-31 06:12:00,54.5,52.2,29.92,SSW,203,2.2,3.1,92,0.00,,,0.00,WUHU216HW,2013-10-31 10:12:00,
2013-10-31 06:14:00,54.5,52.2,29.92,SSW,203,2.0,3.1,92,0.00,,,0.00,WUHU216HW,2013-10-31 10:14:00,
2013-10-31 06:15:00,54.5,52.2,29.92,South,180,1.3,3.1,92,0.00,,,0.00,WUHU216HW,2013-10-31 10:15:00,
2013-10-31 06:17:00,54.7,52.4,29.92,SSE,158,2.0,2.7,92,0.00,,,0.00,WUHU216HW,2013-10-31 10:17:00,
2013-10-31 06:18:00,54.7,52.4,29.92,South,180,1.1,2.7,92,0.00,,,0.00,WUHU216HW,2013-10-31 10:18:00,
2013-10-31 06:20:00,54.7,52.4,29.93,SW,225,3.1,3.1,92,0.00,,,0.00,WUHU216HW,2013-10-31 10:20:00,
2013-10-31 06:21:00,54.7,52.4,29.93,SW,225,3.1,3.1,92,0.00,,,0.00,WUHU216HW,2013-10-31 10:21:00,
2013-10-31 06:22:00,55.1,53.1,29.93,WSW,248,5.1,5.1,93,0.00,,,0.00,WUHU216HW,2013-10-31 10:22:00,
2013-10-31 06:23:00,55.1,53.1,29.93,WSW,248,5.1,5.1,93,0.00,,,0.00,WUHU216HW,2013-10-31 10:23:00,
2013-10-31 06:24:00,55.8,53.8,29.93,WSW,248,5.1,5.8,93,0.00,,,0.00,WUHU216HW,2013-10-31 10:24:00,
2013-10-31 06:26:00,56.2,54.2,29.93,SW,225,4.0,5.8,93,0.00,,,0.00,WUHU216HW,2013-10-31 10:26:00,
2013-10-31 06:27:00,56.3,54.4,29.93,WSW,248,3.6,5.8,93,0.00,,,0.00,WUHU216HW,2013-10-31 10:27:00,
2013-10-31 06:28:00,56.3,54.4,29.93,WSW,248,3.6,5.8,93,0.00,,,0.00,WUHU216HW,2013-10-31 10:28:00,
2013-10-31 06:30:00,56.7,54.4,29.93,SW,225,1.8,5.8,92,0.00,,,0.00,WUHU216HW,2013-10-31 10:30:00,
2013-10-31 06:32:00,56.5,54.2,29.93,SW,225,2.2,5.8,92,0.00,,,0.00,WUHU216HW,2013-10-31 10:32:00,
2013-10-31 06:33:00,56.5,54.2,29.93,SW,225,1.8,5.8,92,0.00,,,0.00,WUHU216HW,2013-10-31 10:33:00,
2013-10-31 06:35:00,56.5,53.9,29.93,SSW,203,1.8,4.0,91,0.00,,,0.00,WUHU216HW,2013-10-31 10:35:00,
2013-10-31 06:37:00,56.3,53.7,29.93,SSW,203,2.0,2.9,91,0.00,,,0.00,WUHU216HW,2013-10-31 10:37:00,
2013-10-31 06:38:00,56.3,53.7,29.93,SSW,203,1.8,2.5,91,0.00,,,0.00,WUHU216HW,2013-10-31 10:38:00,
2013-10-31 06:40:00,56.2,53.6,29.92,SSW,203,2.5,2.5,91,0.00,,,0.00,WUHU216HW,2013-10-31 10:40:00,
2013-10-31 06:42:00,56.2,53.6,29.92,SSW,203,2.2,2.5,91,0.00,,,0.00,WUHU216HW,2013-10-31 10:42:00,
2013-10-31 06:43:00,56.0,53.4,29.92,SSW,203,2.2,2.5,91,0.00,,,0.00,WUHU216HW,2013-10-31 10:43:00,
2013-10-31 06:45:00,56.0,53.6,29.92,SSW,203,2.7,2.7,92,0.00,,,0.00,WUHU216HW,2013-10-31 10:45:00,
2013-10-31 06:47:00,56.0,53.6,29.92,SSW,203,2.7,2.7,92,0.00,,,0.00,WUHU216HW,2013-10-31 10:47:00,
2013-10-31 06:50:00,56.2,53.8,29.92,SSW,203,2.5,2.7,92,0.00,,,0.00,WUHU216HW,2013-10-31 10:50:00,
2013-10-31 06:52:00,56.2,53.6,29.93,SW,225,3.6,3.6,91,0.00,,,0.00,WUHU216HW,2013-10-31 10:52:00,
2013-10-31 06:53:00,56.2,53.8,29.93,SW,225,3.4,3.6,92,0.00,,,0.00,WUHU216HW,2013-10-31 10:53:00,
2013-10-31 06:55:00,56.2,53.6,29.93,SW,225,2.7,3.8,91,0.00,,,0.00,WUHU216HW,2013-10-31 10:55:00,
2013-10-31 06:56:00,56.2,53.6,29.93,SW,225,2.7,3.8,91,0.00,,,0.00,WUHU216HW,2013-10-31 10:56:00,
2013-10-31 06:57:00,56.2,53.6,29.93,SW,225,2.7,3.8,91,0.00,,,0.00,WUHU216HW,2013-10-31 10:57:00,
2013-10-31 06:58:00,56.2,53.6,29.93,SSW,203,1.3,3.8,91,0.00,,,0.00,WUHU216HW,2013-10-31 10:58:00,
2013-10-31 07:00:00,56.0,53.4,29.93,SSW,203,1.6,3.8,91,0.00,,,0.00,WUHU216HW,2013-10-31 11:00:00,
2013-10-31 07:01:00,56.0,53.4,29.93,SSW,203,1.1,3.8,91,0.00,,,0.00,WUHU216HW,2013-10-31 11:01:00,
2013-10-31 07:03:00,55.8,53.2,29.93,SW,225,1.8,3.8,91,0.00,,,0.00,WUHU216HW,2013-10-31 11:03:00,
2013-10-31 07:05:00,55.8,53.2,29.92,SSW,203,1.3,2.7,91,0.00,,,0.00,WUHU216HW,2013-10-31 11:05:00,
2013-10-31 07:06:00,55.8,53.2,29.92,SW,225,1.3,2.7,91,0.00,,,0.00,WUHU216HW,2013-10-31 11:06:00,
2013-10-31 07:07:00,55.8,53.2,29.92,SW,225,1.3,2.5,91,0.00,,,0.00,WUHU216HW,2013-10-31 11:07:00,
2013-10-31 07:08:00,55.8,53.2,29.92,SW,225,1.8,1.8,91,0.00,,,0.00,WUHU216HW,2013-10-31 11:08:00,
2013-10-31 07:10:00,55.8,53.2,29.92,SSW,203,1.1,1.8,91,0.00,,,0.00,WUHU216HW,2013-10-31 11:10:00,
2013-10-31 07:11:00,55.8,53.2,29.92,SSW,203,1.8,1.8,91,0.00,,,0.00,WUHU216HW,2013-10-31 11:11:00,
2013-10-31 07:12:00,55.8,53.5,29.92,SSW,203,1.8,1.8,92,0.00,,,0.00,WUHU216HW,2013-10-31 11:12:00,
2013-10-31 07:13:00,55.8,53.5,29.92,SSW,203,2.7,2.7,92,0.00,,,0.00,WUHU216HW,2013-10-31 11:13:00,
2013-10-31 07:14:00,55.8,53.5,29.92,SSW,203,1.8,2.7,92,0.00,,,0.00,WUHU216HW,2013-10-31 11:14:00,
2013-10-31 07:17:00,56.0,53.6,29.92,SSW,203,3.6,3.6,92,0.00,,,0.00,WUHU216HW,2013-10-31 11:17:00,
2013-10-31 07:19:00,56.2,53.6,29.92,SW,225,2.5,3.6,91,0.00,,,0.00,WUHU216HW,2013-10-31 11:19:00,
2013-10-31 07:20:00,56.2,53.6,29.92,SW,225,2.5,3.6,91,0.00,,,0.00,WUHU216HW,2013-10-31 11:20:00,
2013-10-31 07:21:00,56.2,53.6,29.92,SW,225,3.4,3.6,91,0.00,,,0.00,WUHU216HW,2013-10-31 11:21:00,
2013-10-31 07:22:00,56.3,53.7,29.92,SW,225,3.1,3.6,91,0.00,,,0.00,WUHU216HW,2013-10-31 11:22:00,
2013-10-31 07:23:00,56.3,53.7,29.92,SW,225,3.1,3.6,91,0.00,,,0.00,WUHU216HW,2013-10-31 11:23:00,
2013-10-31 07:25:00,56.3,53.7,29.92,SW,225,3.4,3.6,91,0.00,,,0.00,WUHU216HW,2013-10-31 11:25:00,
2013-10-31 07:26:00,56.3,53.7,29.91,SW,225,2.7,3.6,91,0.00,,,0.00,WUHU216HW,2013-10-31 11:26:00,
2013-10-31 07:27:00,56.3,53.7,29.91,SSW,203,2.5,3.4,91,0.00,,,0.00,WUHU216HW,2013-10-31 11:27:00,
2013-10-31 07:28:00,56.3,53.7,29.91,SSW,203,2.5,3.4,91,0.00,,,0.00,WUHU216HW,2013-10-31 11:28:00,
2013-10-31 07:29:00,56.3,53.7,29.91,SSW,203,2.2,3.4,91,0.00,,,0.00,WUHU216HW,2013-10-31 11:29:00,
2013-10-31 07:30:00,56.3,53.7,29.91,SW,225,3.8,3.8,91,0.00,,,0.00,WUHU216HW,2013-10-31 11:30:00,
2013-10-31 07:31:00,56.5,53.9,29.91,SW,225,3.4,3.8,91,0.00,,,0.00,WUHU216HW,2013-10-31 11:31:00,
2013-10-31 07:32:00,56.3,53.7,29.91,SSW,203,3.6,3.8,91,0.00,,,0.00,WUHU216HW,2013-10-31 11:32:00,
2013-10-31 07:33:00,56.3,53.7,29.91,SSW,203,2.7,3.8,91,0.00,,,0.00,WUHU216HW,2013-10-31 11:33:00,
2013-10-31 07:35:00,56.3,53.7,29.91,SSW,203,2.5,3.8,91,0.00,,,0.00,WUHU216HW,2013-10-31 11:35:00,
2013-10-31 07:36:00,56.2,53.6,29.91,SSW,203,2.5,3.8,91,0.00,,,0.00,WUHU216HW,2013-10-31 11:36:00,
2013-10-31 07:38:00,56.2,53.6,29.91,SSW,203,2.0,3.8,91,0.00,,,0.00,WUHU216HW,2013-10-31 11:38:00,
2013-10-31 07:40:00,56.2,53.6,29.91,WSW,248,3.4,3.6,91,0.00,,,0.00,WUHU216HW,2013-10-31 11:40:00,
2013-10-31 07:41:00,56.0,53.4,29.91,SW,225,4.0,4.0,91,0.00,,,0.00,WUHU216HW,2013-10-31 11:41:00,
2013-10-31 07:42:00,56.0,53.4,29.91,SW,225,2.5,4.0,91,0.00,,,0.00,WUHU216HW,2013-10-31 11:42:00,
2013-10-31 07:43:00,56.0,53.4,29.91,SW,225,2.2,4.0,91,0.00,,,0.00,WUHU216HW,2013-10-31 11:43:00,
2013-10-31 07:44:00,56.0,53.4,29.91,SW,225,2.5,4.0,91,0.00,,,0.00,WUHU216HW,2013-10-31 11:44:00,
2013-10-31 07:46:00,56.0,53.6,29.91,SSW,203,2.5,4.0,92,0.00,,,0.00,WUHU216HW,2013-10-31 11:46:00,
2013-10-31 07:47:00,56.0,53.6,29.91,SSW,203,2.5,4.0,92,0.00,,,0.00,WUHU216HW,2013-10-31 11:47:00,
2013-10-31 07:48:00,56.0,53.6,29.91,WSW,248,2.9,4.0,92,0.00,,,0.00,WUHU216HW,2013-10-31 11:48:00,
2013-10-31 07:50:00,56.0,53.6,29.91,SW,225,4.5,4.5,92,0.00,,,0.00,WUHU216HW,2013-10-31 11:50:00,
2013-10-31 07:52:00,56.0,53.6,29.91,WSW,248,4.5,4.5,92,0.00,,,0.00,WUHU216HW,2013-10-31 11:52:00,
2013-10-31 07:53:00,55.8,53.2,29.91,SSW,203,4.0,4.5,91,0.00,,,0.00,WUHU216HW,2013-10-31 11:53:00,
2013-10-31 07:54:00,56.0,53.6,29.91,SSW,203,3.8,4.5,92,0.00,,,0.00,WUHU216HW,2013-10-31 11:54:00,
2013-10-31 07:57:00,55.8,53.5,29.92,SW,225,3.1,4.5,92,0.00,,,0.00,WUHU216HW,2013-10-31 11:57:00,
2013-10-31 07:58:00,55.8,53.5,29.92,SW,225,3.1,4.5,92,0.00,,,0.00,WUHU216HW,2013-10-31 11:58:00,
2013-10-31 07:59:00,55.8,53.5,29.92,SW,225,3.1,4.5,92,0.00,,,0.00,WUHU216HW,2013-10-31 11:59:00,
2013-10-31 08:00:00,55.8,53.5,29.92,SSW,203,2.5,4.5,92,0.00,,,0.00,WUHU216HW,2013-10-31 12:00:00,
2013-10-31 08:03:00,55.8,53.5,29.91,SSW,203,2.9,4.0,92,0.00,,,0.00,WUHU216HW,2013-10-31 12:03:00,
2013-10-31 08:04:00,55.8,53.5,29.91,SW,225,2.9,3.8,92,0.00,,,0.00,WUHU216HW,2013-10-31 12:04:00,
2013-10-31 08:05:00,55.8,53.5,29.91,SW,225,2.7,3.4,92,0.00,,,0.00,WUHU216HW,2013-10-31 12:05:00,
2013-10-31 08:09:00,55.6,53.3,29.91,SSW,203,2.7,3.4,92,0.00,,,0.00,WUHU216HW,2013-10-31 12:09:00,
2013-10-31 08:10:00,55.6,53.3,29.91,SSW,203,2.7,3.4,92,0.00,,,0.00,WUHU216HW,2013-10-31 12:10:00,
2013-10-31 08:11:00,55.6,53.3,29.91,South,180,2.9,3.4,92,0.00,,,0.00,WUHU216HW,2013-10-31 12:11:00,
2013-10-31 08:14:00,55.6,53.3,29.92,SSW,203,3.4,3.4,92,0.00,,,0.00,WUHU216HW,2013-10-31 12:14:00,
2013-10-31 08:15:00,55.6,53.3,29.92,SSW,203,3.4,3.4,92,0.00,,,0.00,WUHU216HW,2013-10-31 12:15:00,
2013-10-31 08:16:00,55.6,53.3,29.91,SW,225,2.5,3.4,92,0.00,,,0.00,WUHU216HW,2013-10-31 12:16:00,
2013-10-31 08:19:00,55.8,53.5,29.92,SW,225,3.4,3.4,92,0.00,,,0.00,WUHU216HW,2013-10-31 12:19:00,
2013-10-31 08:20:00,55.8,53.5,29.92,SW,225,3.4,3.4,92,0.00,,,0.00,WUHU216HW,2013-10-31 12:20:00,
2013-10-31 08:21:00,55.8,53.5,29.92,SW,225,2.9,3.4,92,0.00,,,0.00,WUHU216HW,2013-10-31 12:21:00,
2013-10-31 08:22:00,55.8,53.5,29.92,SSW,203,1.6,3.4,92,0.00,,,0.00,WUHU216HW,2013-10-31 12:22:00,
2013-10-31 08:25:00,56.0,53.6,29.92,SW,225,2.0,3.4,92,0.00,,,0.00,WUHU216HW,2013-10-31 12:25:00,
2013-10-31 08:26:00,56.2,53.8,29.92,WSW,248,3.4,3.4,92,0.00,,,0.00,WUHU216HW,2013-10-31 12:26:00,
2013-10-31 08:27:00,56.2,53.8,29.92,WSW,248,3.4,3.4,92,0.00,,,0.00,WUHU216HW,2013-10-31 12:27:00,
2013-10-31 08:30:00,56.5,54.2,29.92,SW,225,2.5,3.4,92,0.00,,,0.00,WUHU216HW,2013-10-31 12:30:00,
2013-10-31 08:31:00,56.7,54.4,29.92,SSW,203,1.6,3.4,92,0.00,,,0.00,WUHU216HW,2013-10-31 12:31:00,
2013-10-31 08:33:00,56.7,54.1,29.92,SSW,203,2.5,3.4,91,0.00,,,0.00,WUHU216HW,2013-10-31 12:33:00,
2013-10-31 08:36:00,56.7,54.1,29.92,SW,225,2.2,3.4,91,0.00,,,0.00,WUHU216HW,2013-10-31 12:36:00,
2013-10-31 08:38:00,56.5,53.9,29.92,SSW,203,2.0,2.9,91,0.00,,,0.00,WUHU216HW,2013-10-31 12:38:00,
2013-10-31 08:39:00,56.7,54.1,29.92,SW,225,2.0,2.9,91,0.00,,,0.00,WUHU216HW,2013-10-31 12:39:00,
2013-10-31 08:41:00,56.5,53.9,29.92,SW,225,3.4,3.4,91,0.00,,,0.00,WUHU216HW,2013-10-31 12:41:00,
2013-10-31 08:42:00,56.5,53.9,29.92,WSW,248,2.5,3.4,91,0.00,,,0.00,WUHU216HW,2013-10-31 12:42:00,
2013-10-31 08:43:00,56.5,53.9,29.92,SW,225,2.5,3.4,91,0.00,,,0.00,WUHU216HW,2013-10-31 12:43:00,
2013-10-31 08:44:00,56.5,53.9,29.92,SW,225,2.7,3.4,91,0.00,,,0.00,WUHU216HW,2013-10-31 12:44:00,
2013-10-31 08:45:00,56.5,53.9,29.92,SW,225,3.1,3.4,91,0.00,,,0.00,WUHU216HW,2013-10-31 12:45:00,
2013-10-31 08:47:00,56.7,54.1,29.92,WSW,248,2.5,3.4,91,0.00,,,0.00,WUHU216HW,2013-10-31 12:47:00,
2013-10-31 08:48:00,56.7,54.1,29.92,SW,225,3.4,3.4,91,0.00,,,0.00,WUHU216HW,2013-10-31 12:48:00,
2013-10-31 08:49:00,56.7,54.1,29.92,SW,225,3.4,3.4,91,0.00,,,0.00,WUHU216HW,2013-10-31 12:49:00,
2013-10-31 08:50:00,56.7,54.1,29.92,WSW,248,2.2,3.4,91,0.00,,,0.00,WUHU216HW,2013-10-31 12:50:00,
2013-10-31 08:51:00,56.7,54.1,29.92,WSW,248,4.5,4.5,91,0.00,,,0.00,WUHU216HW,2013-10-31 12:51:00,
2013-10-31 08:52:00,56.7,54.1,29.92,WSW,248,2.7,4.5,91,0.00,,,0.00,WUHU216HW,2013-10-31 12:52:00,
2013-10-31 08:53:00,56.9,54.3,29.92,SSW,203,2.9,4.5,91,0.00,,,0.00,WUHU216HW,2013-10-31 12:53:00,
2013-10-31 08:54:00,56.9,54.3,29.92,SSW,203,2.9,4.5,91,0.00,,,0.00,WUHU216HW,2013-10-31 12:54:00,
2013-10-31 08:55:00,57.1,54.5,29.92,WSW,248,3.8,4.5,91,0.00,,,0.00,WUHU216HW,2013-10-31 12:55:00,
2013-10-31 08:56:00,57.1,54.5,29.92,WSW,248,4.0,4.5,91,0.00,,,0.00,WUHU216HW,2013-10-31 12:56:00,
2013-10-31 08:57:00,57.2,54.4,29.92,WSW,248,4.7,4.7,90,0.00,,,0.00,WUHU216HW,2013-10-31 12:57:00,
2013-10-31 08:59:00,57.4,54.5,29.92,WSW,248,3.8,4.7,90,0.00,,,0.00,WUHU216HW,2013-10-31 12:59:00,
2013-10-31 09:00:00,57.4,54.5,29.92,WSW,248,3.4,4.7,90,0.00,,,0.00,WUHU216HW,2013-10-31 13:00:00,
2013-10-31 09:01:00,57.6,54.7,29.92,West,270,3.1,4.7,90,0.00,,,0.00,WUHU216HW,2013-10-31 13:01:00,
2013-10-31 09:02:00,57.6,54.7,29.92,West,270,2.2,4.7,90,0.00,,,0.00,WUHU216HW,2013-10-31 13:02:00,
2013-10-31 09:04:00,57.6,54.7,29.92,WNW,293,2.5,4.7,90,0.00,,,0.00,WUHU216HW,2013-10-31 13:04:00,
2013-10-31 09:06:00,57.8,54.5,29.92,West,270,2.7,4.7,89,0.00,,,0.00,WUHU216HW,2013-10-31 13:06:00,
2013-10-31 09:07:00,57.8,54.5,29.92,West,270,2.5,3.8,89,0.00,,,0.00,WUHU216HW,2013-10-31 13:07:00,
2013-10-31 09:08:00,57.8,54.5,29.92,WNW,293,2.7,3.8,89,0.00,,,0.00,WUHU216HW,2013-10-31 13:08:00,
2013-10-31 09:09:00,57.8,54.5,29.92,WNW,293,4.3,4.3,89,0.00,,,0.00,WUHU216HW,2013-10-31 13:09:00,
2013-10-31 09:10:00,57.8,54.5,29.92,West,270,4.0,4.3,89,0.00,,,0.00,WUHU216HW,2013-10-31 13:10:00,
2013-10-31 09:11:00,57.8,54.5,29.92,West,270,4.5,4.5,89,0.00,,,0.00,WUHU216HW,2013-10-31 13:11:00,
2013-10-31 09:12:00,57.8,54.5,29.92,West,270,4.3,4.5,89,0.00,,,0.00,WUHU216HW,2013-10-31 13:12:00,
2013-10-31 09:13:00,58.0,54.7,29.92,West,270,4.5,4.5,89,0.00,,,0.00,WUHU216HW,2013-10-31 13:13:00,
2013-10-31 09:14:00,58.0,54.7,29.92,West,270,3.4,4.5,89,0.00,,,0.00,WUHU216HW,2013-10-31 13:14:00,
2013-10-31 09:16:00,58.0,54.7,29.92,SW,225,2.7,4.5,89,0.00,,,0.00,WUHU216HW,2013-10-31 13:16:00,
2013-10-31 09:17:00,58.0,54.7,29.93,SW,225,3.1,4.5,89,0.00,,,0.00,WUHU216HW,2013-10-31 13:17:00,
2013-10-31 09:18:00,58.0,54.7,29.93,SW,225,3.6,4.5,89,0.00,,,0.00,WUHU216HW,2013-10-31 13:18:00,
2013-10-31 09:19:00,58.1,54.9,29.93,SW,225,4.0,4.5,89,0.00,,,0.00,WUHU216HW,2013-10-31 13:19:00,
2013-10-31 09:20:00,58.1,54.9,29.93,SW,225,3.4,4.5,89,0.00,,,0.00,WUHU216HW,2013-10-31 13:20:00,
2013-10-31 09:22:00,58.1,54.9,29.93,WSW,248,2.5,4.5,89,0.00,,,0.00,WUHU216HW,2013-10-31 13:22:00,
2013-10-31 09:23:00,58.3,55.4,29.92,SW,225,2.5,4.0,90,0.00,,,0.00,WUHU216HW,2013-10-31 13:23:00,
2013-10-31 09:24:00,58.3,55.4,29.92,SSW,203,2.5,4.0,90,0.00,,,0.00,WUHU216HW,2013-10-31 13:24:00,
2013-10-31 09:25:00,58.3,55.4,29.92,WSW,248,3.4,4.0,90,0.00,,,0.00,WUHU216HW,2013-10-31 13:25:00,
2013-10-31 09:26:00,58.3,55.4,29.92,WSW,248,3.4,4.0,90,0.00,,,0.00,WUHU216HW,2013-10-31 13:26:00,
2013-10-31 09:27:00,58.3,55.4,29.92,SW,225,2.9,4.0,90,0.00,,,0.00,WUHU216HW,2013-10-31 13:27:00,
2013-10-31 09:29:00,58.3,55.4,29.92,SW,225,2.7,4.0,90,0.00,,,0.00,WUHU216HW,2013-10-31 13:29:00,
2013-10-31 09:32:00,58.5,55.6,29.92,WSW,248,1.3,3.4,90,0.00,,,0.00,WUHU216HW,2013-10-31 13:32:00,
2013-10-31 09:33:00,58.5,55.6,29.92,WSW,248,1.3,3.4,90,0.00,,,0.00,WUHU216HW,2013-10-31 13:33:00,
2013-10-31 09:34:00,58.5,55.6,29.92,WSW,248,2.7,3.4,90,0.00,,,0.00,WUHU216HW,2013-10-31 13:34:00,
2013-10-31 09:35:00,58.7,55.4,29.92,WSW,248,2.7,3.4,89,0.00,,,0.00,WUHU216HW,2013-10-31 13:35:00,
2013-10-31 09:38:00,58.7,55.4,29.92,West,270,2.2,3.4,89,0.00,,,0.00,WUHU216HW,2013-10-31 13:38:00,
2013-10-31 09:39:00,58.7,55.4,29.92,West,270,2.2,3.4,89,0.00,,,0.00,WUHU216HW,2013-10-31 13:39:00,
2013-10-31 09:40:00,58.9,55.6,29.92,West,270,1.1,3.4,89,0.00,,,0.00,WUHU216HW,2013-10-31 13:40:00,
2013-10-31 09:41:00,58.9,55.6,29.91,WSW,248,2.2,2.7,89,0.00,,,0.00,WUHU216HW,2013-10-31 13:41:00,
2013-10-31 09:44:00,59.0,55.8,29.91,SW,225,1.8,2.7,89,0.00,,,0.00,WUHU216HW,2013-10-31 13:44:00,
2013-10-31 09:45:00,58.9,55.6,29.91,SW,225,3.1,3.1,89,0.00,,,0.00,WUHU216HW,2013-10-31 13:45:00,
2013-10-31 09:46:00,59.0,55.8,29.91,WSW,248,2.5,3.1,89,0.00,,,0.00,WUHU216HW,2013-10-31 13:46:00,
2013-10-31 09:47:00,58.9,55.6,29.91,SW,225,2.5,3.1,89,0.00,,,0.00,WUHU216HW,2013-10-31 13:47:00,
2013-10-31 09:48:00,58.9,55.6,29.91,SSW,203,2.0,3.1,89,0.00,,,0.00,WUHU216HW,2013-10-31 13:48:00,
2013-10-31 09:49:00,58.9,55.6,29.91,SW,225,2.9,3.1,89,0.00,,,0.00,WUHU216HW,2013-10-31 13:49:00,
2013-10-31 09:50:00,58.9,55.6,29.91,SW,225,2.9,3.1,89,0.00,,,0.00,WUHU216HW,2013-10-31 13:50:00,
2013-10-31 09:51:00,58.9,55.6,29.91,SW,225,3.8,3.8,89,0.00,,,0.00,WUHU216HW,2013-10-31 13:51:00,
2013-10-31 09:52:00,58.9,55.6,29.91,SW,225,3.8,3.8,89,0.00,,,0.00,WUHU216HW,2013-10-31 13:52:00,
2013-10-31 09:53:00,58.7,55.4,29.91,SW,225,2.9,3.8,89,0.00,,,0.00,WUHU216HW,2013-10-31 13:53:00,
2013-10-31 09:55:00,58.7,55.4,29.91,SW,225,4.0,4.0,89,0.00,,,0.00,WUHU216HW,2013-10-31 13:55:00,
2013-10-31 09:56:00,58.7,55.4,29.91,SW,225,3.6,4.0,89,0.00,,,0.00,WUHU216HW,2013-10-31 13:56:00,
2013-10-31 09:57:00,58.7,55.4,29.91,SW,225,3.1,4.0,89,0.00,,,0.00,WUHU216HW,2013-10-31 13:57:00,
2013-10-31 09:58:00,58.7,55.4,29.91,SW,225,3.1,4.0,89,0.00,,,0.00,WUHU216HW,2013-10-31 13:58:00,
2013-10-31 10:02:00,58.7,55.8,29.90,SSW,203,3.6,4.0,90,0.00,,,0.00,WUHU216HW,2013-10-31 14:02:00,
2013-10-31 10:03:00,58.7,55.8,29.90,SW,225,3.1,4.0,90,0.00,,,0.00,WUHU216HW,2013-10-31 14:03:00,
2013-10-31 10:04:00,58.9,56.0,29.90,SSW,203,3.1,4.0,90,0.00,,,0.00,WUHU216HW,2013-10-31 14:04:00,
2013-10-31 10:05:00,58.9,56.0,29.90,SSW,203,3.1,4.0,90,0.00,,,0.00,WUHU216HW,2013-10-31 14:05:00,
2013-10-31 10:08:00,59.0,56.2,29.90,SSW,203,3.1,4.7,90,0.00,,,0.00,WUHU216HW,2013-10-31 14:08:00,
2013-10-31 10:09:00,59.0,55.8,29.90,SSW,203,4.0,4.7,89,0.00,,,0.00,WUHU216HW,2013-10-31 14:09:00,
2013-10-31 10:11:00,59.2,56.0,29.90,SSW,203,2.2,4.7,89,0.00,,,0.00,WUHU216HW,2013-10-31 14:11:00,
2013-10-31 10:13:00,59.4,56.2,29.90,SSW,203,2.5,4.7,89,0.00,,,0.00,WUHU216HW,2013-10-31 14:13:00,
2013-10-31 10:14:00,59.4,56.2,29.90,SSW,203,2.5,4.7,89,0.00,,,0.00,WUHU216HW,2013-10-31 14:14:00,
2013-10-31 10:16:00,59.4,56.2,29.89,SSW,203,4.7,4.7,89,0.00,,,0.00,WUHU216HW,2013-10-31 14:16:00,
2013-10-31 10:17:00,59.4,56.2,29.89,SSW,203,4.7,4.7,89,0.00,,,0.00,WUHU216HW,2013-10-31 14:17:00,
2013-10-31 10:18:00,59.8,56.3,29.89,SSW,203,4.0,4.7,88,0.00,,,0.00,WUHU216HW,2013-10-31 14:18:00,
2013-10-31 10:19:00,59.8,56.3,29.89,SSW,203,4.0,4.7,88,0.00,,,0.00,WUHU216HW,2013-10-31 14:19:00,
2013-10-31 10:21:00,59.8,56.3,29.89,SSW,203,3.4,4.7,88,0.00,,,0.00,WUHU216HW,2013-10-31 14:21:00,
2013-10-31 10:23:00,60.1,56.6,29.89,SW,225,3.6,4.7,88,0.00,,,0.00,WUHU216HW,2013-10-31 14:23:00,
2013-10-31 10:24:00,60.1,56.6,29.89,SW,225,3.6,4.7,88,0.00,,,0.00,WUHU216HW,2013-10-31 14:24:00,
2013-10-31 10:26:00,60.3,56.4,29.89,SW,225,4.9,4.9,87,0.00,,,0.00,WUHU216HW,2013-10-31 14:26:00,
2013-10-31 10:27:00,60.3,56.4,29.89,SW,225,4.9,4.9,87,0.00,,,0.00,WUHU216HW,2013-10-31 14:27:00,
2013-10-31 10:28:00,60.5,56.6,29.88,SW,225,5.4,5.4,87,0.00,,,0.00,WUHU216HW,2013-10-31 14:28:00,
2013-10-31 10:29:00,60.5,56.6,29.88,SW,225,5.4,5.4,87,0.00,,,0.00,WUHU216HW,2013-10-31 14:29:00,
2013-10-31 10:30:00,60.5,56.6,29.88,SW,225,4.9,5.4,87,0.00,,,0.00,WUHU216HW,2013-10-31 14:30:00,
2013-10-31 10:32:00,60.8,57.0,29.88,SW,225,4.3,5.4,87,0.00,,,0.00,WUHU216HW,2013-10-31 14:32:00,
2013-10-31 10:33:00,60.8,57.0,29.88,SW,225,4.3,5.4,87,0.00,,,0.00,WUHU216HW,2013-10-31 14:33:00,
2013-10-31 10:34:00,61.2,57.3,29.88,SSW,203,3.4,5.4,87,0.00,,,0.00,WUHU216HW,2013-10-31 14:34:00,
2013-10-31 10:35:00,61.4,57.5,29.88,SW,225,3.1,5.4,87,0.00,,,0.00,WUHU216HW,2013-10-31 14:35:00,
2013-10-31 10:36:00,61.6,57.7,29.88,SW,225,4.7,5.4,87,0.00,,,0.00,WUHU216HW,2013-10-31 14:36:00,
2013-10-31 10:37:00,61.9,57.7,29.88,SW,225,4.9,5.4,86,0.00,,,0.00,WUHU216HW,2013-10-31 14:37:00,
2013-10-31 10:39:00,62.3,57.7,29.88,SW,225,5.8,5.8,85,0.00,,,0.00,WUHU216HW,2013-10-31 14:39:00,
2013-10-31 10:40:00,62.8,58.2,29.88,SW,225,4.5,5.8,85,0.00,,,0.00,WUHU216HW,2013-10-31 14:40:00,
2013-10-31 10:41:00,62.8,58.2,29.88,SW,225,4.5,5.8,85,0.00,,,0.00,WUHU216HW,2013-10-31 14:41:00,
2013-10-31 10:43:00,63.2,58.6,29.88,SSW,203,3.8,5.8,85,0.00,,,0.00,WUHU216HW,2013-10-31 14:43:00,
2013-10-31 10:44:00,63.4,58.1,29.88,SSW,203,3.8,5.8,83,0.00,,,0.00,WUHU216HW,2013-10-31 14:44:00,
2013-10-31 10:45:00,63.5,58.2,29.88,South,180,5.8,5.8,83,0.00,,,0.00,WUHU216HW,2013-10-31 14:45:00,
2013-10-31 10:46:00,63.9,58.3,29.88,SSW,203,5.4,5.8,82,0.00,,,0.00,WUHU216HW,2013-10-31 14:46:00,
2013-10-31 10:47:00,64.3,58.7,29.87,SSW,203,5.8,5.8,82,0.00,,,0.00,WUHU216HW,2013-10-31 14:47:00,
2013-10-31 10:48:00,64.3,58.7,29.87,SSW,203,5.8,5.8,82,0.00,,,0.00,WUHU216HW,2013-10-31 14:48:00,
2013-10-31 10:50:00,64.8,58.5,29.87,SSW,203,5.4,6.9,80,0.00,,,0.00,WUHU216HW,2013-10-31 14:50:00,
2013-10-31 10:51:00,64.8,58.5,29.87,SSW,203,5.4,6.9,80,0.00,,,0.00,WUHU216HW,2013-10-31 14:51:00,
2013-10-31 10:52:00,65.2,58.5,29.87,SW,225,9.6,9.6,79,0.00,,,0.00,WUHU216HW,2013-10-31 14:52:00,
2013-10-31 10:53:00,65.2,58.5,29.87,South,180,6.5,9.6,79,0.00,,,0.00,WUHU216HW,2013-10-31 14:53:00,
2013-10-31 10:54:00,65.2,58.5,29.87,SW,225,8.5,9.6,79,0.00,,,0.00,WUHU216HW,2013-10-31 14:54:00,
2013-10-31 10:57:00,65.5,58.9,29.87,SW,225,5.8,9.6,79,0.00,,,0.00,WUHU216HW,2013-10-31 14:57:00,
2013-10-31 10:58:00,65.7,59.4,29.87,SW,225,7.4,9.6,80,0.00,,,0.00,WUHU216HW,2013-10-31 14:58:00,
2013-10-31 11:02:00,66.1,58.6,29.87,SW,225,8.5,10.3,77,0.00,,,0.00,WUHU216HW,2013-10-31 15:02:00,
2013-10-31 11:03:00,66.1,58.6,29.87,SW,225,8.5,10.3,77,0.00,,,0.00,WUHU216HW,2013-10-31 15:03:00,
2013-10-31 11:04:00,66.2,58.8,29.87,SSW,203,5.4,10.3,77,0.00,,,0.00,WUHU216HW,2013-10-31 15:04:00,
2013-10-31 11:05:00,66.4,59.0,29.87,SSW,203,4.7,10.3,77,0.00,,,0.00,WUHU216HW,2013-10-31 15:05:00,
2013-10-31 11:07:00,66.6,58.8,29.87,SW,225,6.7,10.3,76,0.00,,,0.00,WUHU216HW,2013-10-31 15:07:00,
2013-10-31 11:08:00,66.6,58.8,29.87,SW,225,6.7,10.3,76,0.00,,,0.00,WUHU216HW,2013-10-31 15:08:00,
2013-10-31 11:10:00,66.4,58.6,29.87,SW,225,8.5,10.3,76,0.00,,,0.00,WUHU216HW,2013-10-31 15:10:00,
2013-10-31 11:11:00,66.4,59.0,29.87,SW,225,9.2,9.6,77,0.00,,,0.00,WUHU216HW,2013-10-31 15:11:00,
2013-10-31 11:13:00,66.2,58.8,29.87,SSW,203,5.4,9.6,77,0.00,,,0.00,WUHU216HW,2013-10-31 15:13:00,
2013-10-31 11:14:00,66.2,58.8,29.87,SSW,203,6.3,9.6,77,0.00,,,0.00,WUHU216HW,2013-10-31 15:14:00,
2013-10-31 11:17:00,66.6,59.1,29.87,SW,225,6.5,9.6,77,0.00,,,0.00,WUHU216HW,2013-10-31 15:17:00,
2013-10-31 11:19:00,66.8,59.3,29.87,SW,225,3.8,9.6,77,0.00,,,0.00,WUHU216HW,2013-10-31 15:19:00,
2013-10-31 11:20:00,67.0,59.5,29.87,SSW,203,4.9,9.2,77,0.00,,,0.00,WUHU216HW,2013-10-31 15:20:00,
2013-10-31 11:21:00,67.1,59.0,29.87,SSW,203,8.5,9.2,75,0.00,,,0.00,WUHU216HW,2013-10-31 15:21:00,
2013-10-31 11:24:00,67.0,58.8,29.87,SW,225,5.1,10.3,75,0.00,,,0.00,WUHU216HW,2013-10-31 15:24:00,
2013-10-31 11:25:00,67.0,58.8,29.87,SSW,203,8.5,10.3,75,0.00,,,0.00,WUHU216HW,2013-10-31 15:25:00,
2013-10-31 11:26:00,66.8,58.2,29.87,SW,225,8.7,10.3,74,0.00,,,0.00,WUHU216HW,2013-10-31 15:26:00,
2013-10-31 11:27:00,66.6,58.4,29.87,SSW,203,8.7,10.3,75,0.00,,,0.00,WUHU216HW,2013-10-31 15:27:00,
2013-10-31 11:29:00,66.6,58.8,29.87,South,180,5.1,10.3,76,0.00,,,0.00,WUHU216HW,2013-10-31 15:29:00,
2013-10-31 11:30:00,66.6,58.4,29.86,SW,225,4.3,10.3,75,0.00,,,0.00,WUHU216HW,2013-10-31 15:30:00,
2013-10-31 11:31:00,66.6,58.4,29.86,SW,225,4.3,8.7,75,0.00,,,0.00,WUHU216HW,2013-10-31 15:31:00,
2013-10-31 11:32:00,66.6,58.4,29.86,SSW,203,4.5,8.7,75,0.00,,,0.00,WUHU216HW,2013-10-31 15:32:00,
2013-10-31 11:33:00,66.6,58.4,29.86,SSW,203,4.5,8.7,75,0.00,,,0.00,WUHU216HW,2013-10-31 15:33:00,
2013-10-31 11:35:00,66.8,58.6,29.86,SSW,203,6.5,8.7,75,0.00,,,0.00,WUHU216HW,2013-10-31 15:35:00,
2013-10-31 11:38:00,67.0,58.8,29.86,SSW,203,6.9,7.4,75,0.00,,,0.00,WUHU216HW,2013-10-31 15:38:00,
2013-10-31 11:39:00,67.1,58.6,29.86,SSW,203,9.8,9.8,74,0.00,,,0.00,WUHU216HW,2013-10-31 15:39:00,
2013-10-31 11:40:00,67.3,58.8,29.86,SW,225,7.8,9.8,74,0.00,,,0.00,WUHU216HW,2013-10-31 15:40:00,
2013-10-31 11:41:00,67.1,58.6,29.86,SW,225,7.6,9.8,74,0.00,,,0.00,WUHU216HW,2013-10-31 15:41:00,
2013-10-31 11:43:00,67.3,58.8,29.86,SSE,158,4.7,9.8,74,0.00,,,0.00,WUHU216HW,2013-10-31 15:43:00,
2013-10-31 11:44:00,67.3,58.8,29.86,SSE,158,4.7,9.8,74,0.00,,,0.00,WUHU216HW,2013-10-31 15:44:00,
2013-10-31 11:45:00,67.3,58.8,29.86,SW,225,5.4,9.8,74,0.00,,,0.00,WUHU216HW,2013-10-31 15:45:00,
2013-10-31 11:46:00,67.3,58.8,29.86,SSW,203,5.4,9.8,74,0.00,,,0.00,WUHU216HW,2013-10-31 15:46:00,
2013-10-31 11:49:00,67.3,58.4,29.86,SSW,203,8.3,8.3,73,0.00,,,0.00,WUHU216HW,2013-10-31 15:49:00,
2013-10-31 11:50:00,67.3,58.4,29.86,SW,225,5.6,8.3,73,0.00,,,0.00,WUHU216HW,2013-10-31 15:50:00,
2013-10-31 11:51:00,67.5,58.6,29.86,South,180,6.7,8.3,73,0.00,,,0.00,WUHU216HW,2013-10-31 15:51:00,
2013-10-31 11:52:00,67.7,58.8,29.85,SSW,203,6.9,8.3,73,0.00,,,0.00,WUHU216HW,2013-10-31 15:52:00,
2013-10-31 11:53:00,67.7,58.8,29.85,SSW,203,6.9,8.3,73,0.00,,,0.00,WUHU216HW,2013-10-31 15:53:00,
2013-10-31 11:54:00,67.7,58.8,29.85,SSW,203,6.9,8.3,73,0.00,,,0.00,WUHU216HW,2013-10-31 15:54:00,
2013-10-31 11:55:00,67.7,58.0,29.85,SSW,203,8.1,8.3,71,0.00,,,0.00,WUHU216HW,2013-10-31 15:55:00,
2013-10-31 11:57:00,67.9,58.1,29.85,SSW,203,6.5,9.2,71,0.00,,,0.00,WUHU216HW,2013-10-31 15:57:00,
2013-10-31 11:59:00,67.9,58.1,29.85,South,180,9.6,9.6,71,0.00,,,0.00,WUHU216HW,2013-10-31 15:59:00,
2013-10-31 12:00:00,67.9,58.1,29.85,SSW,203,6.7,9.6,71,0.00,,,0.00,WUHU216HW,2013-10-31 16:00:00,
2013-10-31 12:01:00,67.9,57.8,29.85,SW,225,9.6,9.6,70,0.00,,,0.00,WUHU216HW,2013-10-31 16:01:00,
2013-10-31 12:02:00,67.9,57.8,29.85,SW,225,9.6,9.6,70,0.00,,,0.00,WUHU216HW,2013-10-31 16:02:00,
2013-10-31 12:03:00,67.9,57.8,29.85,South,180,8.3,9.6,70,0.00,,,0.00,WUHU216HW,2013-10-31 16:03:00,
2013-10-31 12:04:00,67.9,57.8,29.85,SSW,203,7.4,9.6,70,0.00,,,0.00,WUHU216HW,2013-10-31 16:04:00,
2013-10-31 12:05:00,67.9,57.8,29.85,South,180,7.6,9.6,70,0.00,,,0.00,WUHU216HW,2013-10-31 16:05:00,
2013-10-31 12:06:00,67.7,57.6,29.85,South,180,7.6,9.6,70,0.00,,,0.00,WUHU216HW,2013-10-31 16:06:00,
2013-10-31 12:07:00,67.7,57.6,29.85,SSW,203,9.8,9.8,70,0.00,,,0.00,WUHU216HW,2013-10-31 16:07:00,
2013-10-31 12:08:00,67.7,57.6,29.85,SSW,203,9.2,9.8,70,0.00,,,0.00,WUHU216HW,2013-10-31 16:08:00,
2013-10-31 12:09:00,67.7,57.6,29.85,SW,225,7.4,9.8,70,0.00,,,0.00,WUHU216HW,2013-10-31 16:09:00,
2013-10-31 12:10:00,67.7,57.6,29.85,SW,225,7.4,9.8,70,0.00,,,0.00,WUHU216HW,2013-10-31 16:10:00,
2013-10-31 12:13:00,67.7,57.6,29.85,SSW,203,11.9,11.9,70,0.00,,,0.00,WUHU216HW,2013-10-31 16:13:00,
2013-10-31 12:14:00,67.7,57.6,29.85,SSW,203,6.9,11.9,70,0.00,,,0.00,WUHU216HW,2013-10-31 16:14:00,
2013-10-31 12:15:00,67.7,57.6,29.85,SSW,203,6.9,11.9,70,0.00,,,0.00,WUHU216HW,2013-10-31 16:15:00,
2013-10-31 12:16:00,67.7,57.6,29.85,South,180,9.4,11.9,70,0.00,,,0.00,WUHU216HW,2013-10-31 16:16:00,
2013-10-31 12:17:00,67.7,57.6,29.85,South,180,9.4,11.9,70,0.00,,,0.00,WUHU216HW,2013-10-31 16:17:00,
2013-10-31 12:19:00,67.7,57.2,29.85,SSW,203,7.2,11.9,69,0.00,,,0.00,WUHU216HW,2013-10-31 16:19:00,
2013-10-31 12:20:00,67.7,57.2,29.85,SSW,203,7.2,11.9,69,0.00,,,0.00,WUHU216HW,2013-10-31 16:20:00,
2013-10-31 12:22:00,67.7,57.2,29.85,South,180,9.6,13.0,69,0.00,,,0.00,WUHU216HW,2013-10-31 16:22:00,
2013-10-31 12:23:00,67.7,57.2,29.85,SSW,203,11.2,13.0,69,0.00,,,0.00,WUHU216HW,2013-10-31 16:23:00,
2013-10-31 12:24:00,67.7,57.2,29.85,SSW,203,10.5,13.0,69,0.00,,,0.00,WUHU216HW,2013-10-31 16:24:00,
2013-10-31 12:25:00,67.7,56.7,29.85,SSW,203,9.4,13.0,68,0.00,,,0.00,WUHU216HW,2013-10-31 16:25:00,
2013-10-31 12:28:00,67.7,57.2,29.84,South,180,10.5,13.0,69,0.00,,,0.00,WUHU216HW,2013-10-31 16:28:00,
2013-10-31 12:30:00,67.7,56.7,29.84,South,180,9.8,13.0,68,0.00,,,0.00,WUHU216HW,2013-10-31 16:30:00,
2013-10-31 12:31:00,67.7,56.7,29.84,SSW,203,11.0,12.1,68,0.00,,,0.00,WUHU216HW,2013-10-31 16:31:00,
2013-10-31 12:33:00,67.9,57.3,29.84,South,180,7.4,12.1,69,0.00,,,0.00,WUHU216HW,2013-10-31 16:33:00,
2013-10-31 12:34:00,67.9,57.3,29.84,South,180,7.4,12.1,69,0.00,,,0.00,WUHU216HW,2013-10-31 16:34:00,
2013-10-31 12:36:00,67.9,56.9,29.83,South,180,9.8,12.1,68,0.00,,,0.00,WUHU216HW,2013-10-31 16:36:00,
2013-10-31 12:37:00,67.9,56.9,29.83,South,180,9.8,12.1,68,0.00,,,0.00,WUHU216HW,2013-10-31 16:37:00,
2013-10-31 12:39:00,67.9,56.9,29.83,SSW,203,9.2,11.0,68,0.00,,,0.00,WUHU216HW,2013-10-31 16:39:00,
2013-10-31 12:41:00,67.9,56.9,29.83,South,180,9.2,10.1,68,0.00,,,0.00,WUHU216HW,2013-10-31 16:41:00,
2013-10-31 12:42:00,68.0,57.1,29.83,SSW,203,9.2,10.1,68,0.00,,,0.00,WUHU216HW,2013-10-31 16:42:00,
2013-10-31 12:43:00,68.0,56.7,29.83,SW,225,13.9,13.9,67,0.00,,,0.00,WUHU216HW,2013-10-31 16:43:00,
2013-10-31 12:44:00,68.0,56.7,29.83,South,180,6.3,13.9,67,0.00,,,0.00,WUHU216HW,2013-10-31 16:44:00,
2013-10-31 12:45:00,68.0,56.7,29.83,SSW,203,11.4,13.9,67,0.00,,,0.00,WUHU216HW,2013-10-31 16:45:00,
2013-10-31 12:47:00,68.0,57.1,29.83,SSW,203,9.6,13.9,68,0.00,,,0.00,WUHU216HW,2013-10-31 16:47:00,
2013-10-31 12:48:00,68.0,57.1,29.83,SW,225,7.6,13.9,68,0.00,,,0.00,WUHU216HW,2013-10-31 16:48:00,
2013-10-31 12:50:00,68.2,56.8,29.83,South,180,14.3,14.3,67,0.00,,,0.00,WUHU216HW,2013-10-31 16:50:00,
2013-10-31 12:51:00,68.2,56.8,29.83,SW,225,10.3,14.3,67,0.00,,,0.00,WUHU216HW,2013-10-31 16:51:00,
2013-10-31 12:53:00,68.2,56.4,29.82,South,180,11.4,14.3,66,0.00,,,0.00,WUHU216HW,2013-10-31 16:53:00,
2013-10-31 12:55:00,68.4,57.0,29.83,South,180,9.6,14.3,67,0.00,,,0.00,WUHU216HW,2013-10-31 16:55:00,
2013-10-31 12:56:00,68.4,57.0,29.83,South,180,9.6,14.3,67,0.00,,,0.00,WUHU216HW,2013-10-31 16:56:00,
2013-10-31 12:58:00,68.4,56.6,29.82,South,180,6.7,14.3,66,0.00,,,0.00,WUHU216HW,2013-10-31 16:58:00,
2013-10-31 12:59:00,68.4,56.6,29.82,SSW,203,8.9,11.4,66,0.00,,,0.00,WUHU216HW,2013-10-31 16:59:00,
2013-10-31 13:00:00,68.6,56.7,29.82,SSW,203,10.5,11.4,66,0.00,,,0.00,WUHU216HW,2013-10-31 17:00:00,
2013-10-31 13:01:00,68.6,56.7,29.82,SSW,203,10.7,11.4,66,0.00,,,0.00,WUHU216HW,2013-10-31 17:01:00,
2013-10-31 13:02:00,68.6,56.7,29.82,SSW,203,9.2,11.4,66,0.00,,,0.00,WUHU216HW,2013-10-31 17:02:00,
2013-10-31 13:04:00,68.6,56.7,29.82,SSW,203,9.8,10.7,66,0.00,,,0.00,WUHU216HW,2013-10-31 17:04:00,
2013-10-31 13:05:00,68.6,56.7,29.82,SW,225,11.4,11.4,66,0.00,,,0.00,WUHU216HW,2013-10-31 17:05:00,
2013-10-31 13:07:00,68.6,56.7,29.82,SSW,203,13.9,14.3,66,0.00,,,0.00,WUHU216HW,2013-10-31 17:07:00,
2013-10-31 13:08:00,68.6,56.7,29.82,SSW,203,13.9,14.3,66,0.00,,,0.00,WUHU216HW,2013-10-31 17:08:00,
2013-10-31 13:11:00,68.8,56.9,29.82,SSW,203,7.6,14.3,66,0.00,,,0.00,WUHU216HW,2013-10-31 17:11:00,
2013-10-31 13:13:00,68.9,56.7,29.82,SSW,203,12.1,14.3,65,0.00,,,0.00,WUHU216HW,2013-10-31 17:13:00,
2013-10-31 13:16:00,69.1,56.8,29.81,SSW,203,13.9,13.9,65,0.00,,,0.00,WUHU216HW,2013-10-31 17:16:00,
2013-10-31 13:17:00,68.9,56.3,29.82,SSW,203,16.8,16.8,64,0.00,,,0.00,WUHU216HW,2013-10-31 17:17:00,
2013-10-31 13:18:00,69.1,56.8,29.81,SSW,203,17.7,17.7,65,0.00,,,0.00,WUHU216HW,2013-10-31 17:18:00,
2013-10-31 13:19:00,69.1,56.8,29.81,SSW,203,14.1,17.7,65,0.00,,,0.00,WUHU216HW,2013-10-31 17:19:00,
2013-10-31 13:20:00,69.1,56.8,29.81,SSW,203,14.1,17.7,65,0.00,,,0.00,WUHU216HW,2013-10-31 17:20:00,
2013-10-31 13:22:00,69.1,56.4,29.81,SW,225,18.8,18.8,64,0.00,,,0.00,WUHU216HW,2013-10-31 17:22:00,
2013-10-31 13:24:00,68.9,56.3,29.81,South,180,14.3,18.8,64,0.00,,,0.00,WUHU216HW,2013-10-31 17:24:00,
2013-10-31 13:25:00,68.9,56.3,29.81,SW,225,12.1,18.8,64,0.00,,,0.00,WUHU216HW,2013-10-31 17:25:00,
2013-10-31 13:26:00,68.8,56.5,29.81,SSW,203,9.8,18.8,65,0.00,,,0.00,WUHU216HW,2013-10-31 17:26:00,
2013-10-31 13:27:00,68.8,56.5,29.81,SSW,203,10.5,18.8,65,0.00,,,0.00,WUHU216HW,2013-10-31 17:27:00,
2013-10-31 13:29:00,68.8,56.5,29.81,SW,225,14.5,18.8,65,0.00,,,0.00,WUHU216HW,2013-10-31 17:29:00,
2013-10-31 13:32:00,68.8,56.5,29.81,SSW,203,14.8,16.3,65,0.00,,,0.00,WUHU216HW,2013-10-31 17:32:00,
2013-10-31 13:33:00,68.8,56.5,29.81,SSW,203,13.2,14.8,65,0.00,,,0.00,WUHU216HW,2013-10-31 17:33:00,
2013-10-31 13:34:00,68.8,56.5,29.81,South,180,9.4,14.8,65,0.00,,,0.00,WUHU216HW,2013-10-31 17:34:00,
2013-10-31 13:35:00,68.8,56.5,29.80,SSW,203,8.5,14.8,65,0.00,,,0.00,WUHU216HW,2013-10-31 17:35:00,
2013-10-31 13:37:00,68.8,56.5,29.80,South,180,8.9,14.8,65,0.00,,,0.00,WUHU216HW,2013-10-31 17:37:00,
2013-10-31 13:38:00,68.8,56.5,29.80,South,180,8.9,14.8,65,0.00,,,0.00,WUHU216HW,2013-10-31 17:38:00,
2013-10-31 13:39:00,68.8,56.5,29.80,South,180,10.1,14.8,65,0.00,,,0.00,WUHU216HW,2013-10-31 17:39:00,
2013-10-31 13:40:00,68.8,56.5,29.80,SSW,203,14.3,14.8,65,0.00,,,0.00,WUHU216HW,2013-10-31 17:40:00,
2013-10-31 13:43:00,68.8,56.5,29.80,SSW,203,17.2,17.2,65,0.00,,,0.00,WUHU216HW,2013-10-31 17:43:00,
2013-10-31 13:44:00,68.6,56.4,29.80,South,180,10.1,17.2,65,0.00,,,0.00,WUHU216HW,2013-10-31 17:44:00,
2013-10-31 13:45:00,68.6,56.4,29.80,SSW,203,11.4,17.2,65,0.00,,,0.00,WUHU216HW,2013-10-31 17:45:00,
2013-10-31 13:46:00,68.6,56.4,29.79,WSW,248,17.9,17.9,65,0.00,,,0.00,WUHU216HW,2013-10-31 17:46:00,
2013-10-31 13:48:00,68.6,56.4,29.79,South,180,13.4,17.9,65,0.00,,,0.00,WUHU216HW,2013-10-31 17:48:00,
2013-10-31 13:49:00,68.8,56.5,29.79,SSW,203,14.1,17.9,65,0.00,,,0.00,WUHU216HW,2013-10-31 17:49:00,
2013-10-31 13:50:00,68.8,56.5,29.79,SSW,203,14.1,17.9,65,0.00,,,0.00,WUHU216HW,2013-10-31 17:50:00,
2013-10-31 13:51:00,68.6,56.4,29.79,SSW,203,14.8,17.9,65,0.00,,,0.00,WUHU216HW,2013-10-31 17:51:00,
2013-10-31 13:52:00,68.6,56.4,29.79,SSW,203,14.8,17.9,65,0.00,,,0.00,WUHU216HW,2013-10-31 17:52:00,
2013-10-31 13:54:00,68.8,56.5,29.79,SSW,203,8.5,17.9,65,0.00,,,0.00,WUHU216HW,2013-10-31 17:54:00,
2013-10-31 13:55:00,68.8,56.5,29.79,SSW,203,8.5,17.9,65,0.00,,,0.00,WUHU216HW,2013-10-31 17:55:00,
2013-10-31 13:57:00,68.8,56.5,29.79,SW,225,12.3,19.2,65,0.00,,,0.00,WUHU216HW,2013-10-31 17:57:00,
2013-10-31 13:58:00,68.8,56.5,29.79,SSW,203,9.4,19.2,65,0.00,,,0.00,WUHU216HW,2013-10-31 17:58:00,
2013-10-31 14:01:00,68.8,56.5,29.78,SSW,203,11.4,19.2,65,0.00,,,0.00,WUHU216HW,2013-10-31 18:01:00,
2013-10-31 14:02:00,68.8,56.5,29.78,South,180,13.4,19.2,65,0.00,,,0.00,WUHU216HW,2013-10-31 18:02:00,
2013-10-31 14:03:00,68.8,56.5,29.78,SSW,203,12.5,19.2,65,0.00,,,0.00,WUHU216HW,2013-10-31 18:03:00,
2013-10-31 14:06:00,68.8,56.5,29.78,SW,225,11.4,14.5,65,0.00,,,0.00,WUHU216HW,2013-10-31 18:06:00,
2013-10-31 14:07:00,68.8,56.5,29.78,SSW,203,12.3,17.2,65,0.00,,,0.00,WUHU216HW,2013-10-31 18:07:00,
2013-10-31 14:08:00,68.8,56.5,29.78,SSW,203,11.0,17.2,65,0.00,,,0.00,WUHU216HW,2013-10-31 18:08:00,
2013-10-31 14:09:00,68.8,56.5,29.78,South,180,9.8,17.2,65,0.00,,,0.00,WUHU216HW,2013-10-31 18:09:00,
2013-10-31 14:11:00,68.8,56.5,29.78,SSW,203,13.0,17.2,65,0.00,,,0.00,WUHU216HW,2013-10-31 18:11:00,
2013-10-31 14:12:00,68.8,56.5,29.78,SSW,203,13.4,17.2,65,0.00,,,0.00,WUHU216HW,2013-10-31 18:12:00,
2013-10-31 14:14:00,68.9,56.7,29.78,SW,225,13.4,17.2,65,0.00,,,0.00,WUHU216HW,2013-10-31 18:14:00,
2013-10-31 14:15:00,68.9,56.7,29.78,SW,225,13.4,17.2,65,0.00,,,0.00,WUHU216HW,2013-10-31 18:15:00,
2013-10-31 14:17:00,69.1,56.4,29.77,South,180,13.4,13.4,64,0.00,,,0.00,WUHU216HW,2013-10-31 18:17:00,
2013-10-31 14:18:00,69.1,56.4,29.77,SW,225,14.5,14.5,64,0.00,,,0.00,WUHU216HW,2013-10-31 18:18:00,
2013-10-31 14:20:00,69.1,56.4,29.77,SW,225,12.8,14.5,64,0.00,,,0.00,WUHU216HW,2013-10-31 18:20:00,
2013-10-31 14:22:00,69.1,56.4,29.77,SSW,203,15.7,15.7,64,0.00,,,0.00,WUHU216HW,2013-10-31 18:22:00,
2013-10-31 14:23:00,69.1,56.4,29.77,SSW,203,15.7,15.7,64,0.00,,,0.00,WUHU216HW,2013-10-31 18:23:00,
2013-10-31 14:24:00,69.1,56.4,29.77,SSW,203,9.6,15.7,64,0.00,,,0.00,WUHU216HW,2013-10-31 18:24:00,
2013-10-31 14:25:00,68.9,56.3,29.77,South,180,13.0,15.7,64,0.00,,,0.00,WUHU216HW,2013-10-31 18:25:00,
2013-10-31 14:26:00,68.9,56.3,29.77,South,180,13.0,15.7,64,0.00,,,0.00,WUHU216HW,2013-10-31 18:26:00,
2013-10-31 14:27:00,69.1,56.4,29.77,SSW,203,9.4,15.7,64,0.00,,,0.00,WUHU216HW,2013-10-31 18:27:00,
2013-10-31 14:28:00,69.1,56.4,29.77,South,180,7.6,15.7,64,0.00,,,0.00,WUHU216HW,2013-10-31 18:28:00,
2013-10-31 14:29:00,69.1,56.4,29.76,South,180,10.1,15.7,64,0.00,,,0.00,WUHU216HW,2013-10-31 18:29:00,
2013-10-31 14:31:00,69.1,56.0,29.76,SW,225,17.4,17.4,63,0.00,,,0.00,WUHU216HW,2013-10-31 18:31:00,
2013-10-31 14:32:00,69.1,56.0,29.76,SW,225,17.4,17.4,63,0.00,,,0.00,WUHU216HW,2013-10-31 18:32:00,
2013-10-31 14:33:00,69.3,56.2,29.76,SSW,203,12.5,17.4,63,0.00,,,0.00,WUHU216HW,2013-10-31 18:33:00,
2013-10-31 14:34:00,69.3,56.6,29.76,SW,225,9.8,17.4,64,0.00,,,0.00,WUHU216HW,2013-10-31 18:34:00,
2013-10-31 14:35:00,69.3,56.6,29.76,SW,225,9.8,17.4,64,0.00,,,0.00,WUHU216HW,2013-10-31 18:35:00,
2013-10-31 14:37:00,69.3,56.6,29.76,SSW,203,8.9,17.4,64,0.00,,,0.00,WUHU216HW,2013-10-31 18:37:00,
2013-10-31 14:38:00,69.3,56.6,29.76,South,180,11.6,17.4,64,0.00,,,0.00,WUHU216HW,2013-10-31 18:38:00,
2013-10-31 14:39:00,69.5,55.9,29.76,SSW,203,15.7,17.4,62,0.00,,,0.00,WUHU216HW,2013-10-31 18:39:00,
2013-10-31 14:40:00,69.5,55.9,29.75,SSE,158,10.7,17.4,62,0.00,,,0.00,WUHU216HW,2013-10-31 18:40:00,
2013-10-31 14:41:00,69.5,55.9,29.75,SSE,158,10.7,17.4,62,0.00,,,0.00,WUHU216HW,2013-10-31 18:41:00,
2013-10-31 14:42:00,69.5,55.5,29.75,South,180,12.8,15.7,61,0.00,,,0.00,WUHU216HW,2013-10-31 18:42:00,
2013-10-31 14:43:00,69.5,55.9,29.76,SSW,203,15.0,15.7,62,0.00,,,0.00,WUHU216HW,2013-10-31 18:43:00,
2013-10-31 14:45:00,69.5,55.9,29.75,SW,225,11.9,15.7,62,0.00,,,0.00,WUHU216HW,2013-10-31 18:45:00,
2013-10-31 14:46:00,69.5,55.5,29.75,SSW,203,15.4,15.7,61,0.00,,,0.00,WUHU216HW,2013-10-31 18:46:00,
2013-10-31 14:47:00,69.5,55.5,29.75,SSW,203,17.2,17.2,61,0.00,,,0.00,WUHU216HW,2013-10-31 18:47:00,
2013-10-31 14:48:00,69.5,55.5,29.75,SSW,203,17.2,17.2,61,0.00,,,0.00,WUHU216HW,2013-10-31 18:48:00,
2013-10-31 14:50:00,69.5,55.9,29.75,SSW,203,12.8,17.2,62,0.00,,,0.00,WUHU216HW,2013-10-31 18:50:00,
2013-10-31 14:51:00,69.5,55.9,29.75,SW,225,17.2,17.2,62,0.00,,,0.00,WUHU216HW,2013-10-31 18:51:00,
2013-10-31 14:52:00,69.5,55.5,29.75,SSW,203,15.7,17.2,61,0.00,,,0.00,WUHU216HW,2013-10-31 18:52:00,
2013-10-31 14:53:00,69.5,55.5,29.75,SSW,203,17.4,17.4,61,0.00,,,0.00,WUHU216HW,2013-10-31 18:53:00,
2013-10-31 14:54:00,69.5,55.5,29.75,SSW,203,17.4,17.4,61,0.00,,,0.00,WUHU216HW,2013-10-31 18:54:00,
2013-10-31 14:55:00,69.5,55.5,29.75,SSW,203,13.6,17.4,61,0.00,,,0.00,WUHU216HW,2013-10-31 18:55:00,
2013-10-31 14:56:00,69.5,55.9,29.75,South,180,11.2,17.4,62,0.00,,,0.00,WUHU216HW,2013-10-31 18:56:00,
2013-10-31 14:59:00,69.3,55.7,29.75,SSW,203,12.1,17.4,62,0.00,,,0.00,WUHU216HW,2013-10-31 18:59:00,
2013-10-31 15:01:00,69.3,55.4,29.75,South,180,17.4,17.4,61,0.00,,,0.00,WUHU216HW,2013-10-31 19:01:00,
2013-10-31 15:02:00,69.5,55.5,29.75,SSW,203,16.8,17.4,61,0.00,,,0.00,WUHU216HW,2013-10-31 19:02:00,
2013-10-31 15:05:00,69.5,55.5,29.75,South,180,11.9,17.4,61,0.00,,,0.00,WUHU216HW,2013-10-31 19:05:00,
2013-10-31 15:06:00,69.5,55.5,29.75,South,180,11.9,17.4,61,0.00,,,0.00,WUHU216HW,2013-10-31 19:06:00,
2013-10-31 15:07:00,69.5,55.5,29.75,SSE,158,14.3,17.4,61,0.00,,,0.00,WUHU216HW,2013-10-31 19:07:00,
2013-10-31 15:08:00,69.5,55.5,29.74,SSW,203,14.1,17.4,61,0.00,,,0.00,WUHU216HW,2013-10-31 19:08:00,
2013-10-31 15:11:00,69.5,55.5,29.74,SSW,203,12.8,16.8,61,0.00,,,0.00,WUHU216HW,2013-10-31 19:11:00,
2013-10-31 15:12:00,69.5,55.5,29.75,SSW,203,13.9,15.0,61,0.00,,,0.00,WUHU216HW,2013-10-31 19:12:00,
2013-10-31 15:13:00,69.5,55.9,29.75,SW,225,9.6,14.5,62,0.00,,,0.00,WUHU216HW,2013-10-31 19:13:00,
2013-10-31 15:14:00,69.5,55.9,29.74,SSW,203,9.4,14.5,62,0.00,,,0.00,WUHU216HW,2013-10-31 19:14:00,
2013-10-31 15:18:00,69.5,55.5,29.75,SSW,203,22.4,22.4,61,0.00,,,0.00,WUHU216HW,2013-10-31 19:18:00,
2013-10-31 15:19:00,69.5,55.5,29.75,SSW,203,10.1,22.4,61,0.00,,,0.00,WUHU216HW,2013-10-31 19:19:00,
2013-10-31 15:21:00,69.5,55.1,29.74,SSW,203,14.5,22.4,60,0.00,,,0.00,WUHU216HW,2013-10-31 19:21:00,
2013-10-31 15:24:00,69.5,55.5,29.74,SSW,203,11.6,22.4,61,0.00,,,0.00,WUHU216HW,2013-10-31 19:24:00,
2013-10-31 15:25:00,69.3,55.4,29.75,SSW,203,11.4,22.4,61,0.00,,,0.00,WUHU216HW,2013-10-31 19:25:00,
2013-10-31 15:26:00,69.3,55.4,29.75,SSW,203,11.4,22.4,61,0.00,,,0.00,WUHU216HW,2013-10-31 19:26:00,
2013-10-31 15:29:00,69.3,55.4,29.74,South,180,9.4,14.8,61,0.00,,,0.00,WUHU216HW,2013-10-31 19:29:00,
2013-10-31 15:30:00,69.3,55.4,29.74,SW,225,8.5,14.8,61,0.00,,,0.00,WUHU216HW,2013-10-31 19:30:00,
2013-10-31 15:31:00,69.3,55.4,29.74,SSW,203,11.9,14.8,61,0.00,,,0.00,WUHU216HW,2013-10-31 19:31:00,
2013-10-31 15:32:00,69.3,55.4,29.74,SSW,203,11.9,14.8,61,0.00,,,0.00,WUHU216HW,2013-10-31 19:32:00,
2013-10-31 15:34:00,69.1,55.2,29.74,SSW,203,13.2,14.8,61,0.00,,,0.00,WUHU216HW,2013-10-31 19:34:00,
2013-10-31 15:36:00,69.1,55.2,29.74,South,180,13.6,14.8,61,0.00,,,0.00,WUHU216HW,2013-10-31 19:36:00,
2013-10-31 15:37:00,69.1,55.2,29.74,SW,225,14.5,14.8,61,0.00,,,0.00,WUHU216HW,2013-10-31 19:37:00,
2013-10-31 15:39:00,69.3,55.4,29.74,South,180,15.0,15.0,61,0.00,,,0.00,WUHU216HW,2013-10-31 19:39:00,
2013-10-31 15:41:00,69.3,55.4,29.74,South,180,17.4,17.4,61,0.00,,,0.00,WUHU216HW,2013-10-31 19:41:00,
2013-10-31 15:42:00,69.1,55.2,29.73,SSW,203,8.5,17.4,61,0.00,,,0.00,WUHU216HW,2013-10-31 19:42:00,
2013-10-31 15:43:00,69.1,55.2,29.73,SSW,203,8.5,17.4,61,0.00,,,0.00,WUHU216HW,2013-10-31 19:43:00,
2013-10-31 15:45:00,69.1,54.7,29.73,SSW,203,15.4,17.4,60,0.00,,,0.00,WUHU216HW,2013-10-31 19:45:00,
2013-10-31 15:47:00,69.3,55.4,29.74,South,180,13.6,17.4,61,0.00,,,0.00,WUHU216HW,2013-10-31 19:47:00,
2013-10-31 15:48:00,69.3,55.4,29.73,South,180,12.8,17.4,61,0.00,,,0.00,WUHU216HW,2013-10-31 19:48:00,
2013-10-31 15:50:00,69.1,55.5,29.73,South,180,8.3,17.4,62,0.00,,,0.00,WUHU216HW,2013-10-31 19:50:00,
2013-10-31 15:53:00,68.9,55.0,29.73,South,180,14.3,17.2,61,0.00,,,0.00,WUHU216HW,2013-10-31 19:53:00,
2013-10-31 15:54:00,68.9,55.0,29.73,SSW,203,11.4,17.2,61,0.00,,,0.00,WUHU216HW,2013-10-31 19:54:00,
2013-10-31 15:56:00,68.8,55.2,29.73,SSW,203,12.1,14.3,62,0.00,,,0.00,WUHU216HW,2013-10-31 19:56:00,
2013-10-31 15:57:00,68.8,55.2,29.73,South,180,11.0,14.3,62,0.00,,,0.00,WUHU216HW,2013-10-31 19:57:00,
2013-10-31 15:59:00,68.8,55.2,29.73,SSW,203,10.3,14.3,62,0.00,,,0.00,WUHU216HW,2013-10-31 19:59:00,
2013-10-31 16:00:00,68.6,55.0,29.73,SSE,158,12.3,14.3,62,0.00,,,0.00,WUHU216HW,2013-10-31 20:00:00,
2013-10-31 16:02:00,68.6,55.4,29.73,SSE,158,8.1,14.3,63,0.00,,,0.00,WUHU216HW,2013-10-31 20:02:00,
2013-10-31 16:04:00,68.4,54.9,29.73,SSE,158,10.3,13.9,62,0.00,,,0.00,WUHU216HW,2013-10-31 20:04:00,
2013-10-31 16:06:00,68.6,55.0,29.73,South,180,14.8,14.8,62,0.00,,,0.00,WUHU216HW,2013-10-31 20:06:00,
2013-10-31 16:07:00,68.4,54.9,29.72,South,180,8.5,14.8,62,0.00,,,0.00,WUHU216HW,2013-10-31 20:07:00,
2013-10-31 16:11:00,68.4,55.3,29.72,SSW,203,11.2,14.8,63,0.00,,,0.00,WUHU216HW,2013-10-31 20:11:00,
2013-10-31 16:12:00,68.4,55.3,29.73,SSW,203,10.1,14.8,63,0.00,,,0.00,WUHU216HW,2013-10-31 20:12:00,
2013-10-31 16:13:00,68.4,55.3,29.73,SSW,203,10.1,14.8,63,0.00,,,0.00,WUHU216HW,2013-10-31 20:13:00,
2013-10-31 16:14:00,68.4,55.3,29.73,SSW,203,14.3,14.8,63,0.00,,,0.00,WUHU216HW,2013-10-31 20:14:00,
2013-10-31 16:17:00,68.2,55.1,29.73,SSW,203,6.3,14.8,63,0.00,,,0.00,WUHU216HW,2013-10-31 20:17:00,
2013-10-31 16:18:00,68.2,55.1,29.73,SSW,203,9.8,14.3,63,0.00,,,0.00,WUHU216HW,2013-10-31 20:18:00,
2013-10-31 16:19:00,68.2,55.1,29.73,South,180,8.3,14.3,63,0.00,,,0.00,WUHU216HW,2013-10-31 20:19:00,
2013-10-31 16:22:00,68.0,54.9,29.73,SSE,158,12.1,14.3,63,0.00,,,0.00,WUHU216HW,2013-10-31 20:22:00,
2013-10-31 16:23:00,68.0,54.9,29.73,SSE,158,12.1,14.3,63,0.00,,,0.00,WUHU216HW,2013-10-31 20:23:00,
2013-10-31 16:24:00,68.0,54.9,29.73,SSW,203,15.0,15.0,63,0.00,,,0.00,WUHU216HW,2013-10-31 20:24:00,
2013-10-31 16:25:00,68.0,54.9,29.73,SSW,203,16.3,16.3,63,0.00,,,0.00,WUHU216HW,2013-10-31 20:25:00,
2013-10-31 16:27:00,68.0,55.4,29.73,SSW,203,10.1,16.3,64,0.00,,,0.00,WUHU216HW,2013-10-31 20:27:00,
2013-10-31 16:28:00,68.0,55.4,29.72,SSW,203,10.7,16.3,64,0.00,,,0.00,WUHU216HW,2013-10-31 20:28:00,
2013-10-31 16:29:00,68.0,55.4,29.72,SSW,203,10.7,16.3,64,0.00,,,0.00,WUHU216HW,2013-10-31 20:29:00,
2013-10-31 16:30:00,68.0,55.4,29.72,South,180,13.4,16.3,64,0.00,,,0.00,WUHU216HW,2013-10-31 20:30:00,
2013-10-31 16:32:00,68.0,55.4,29.72,SSW,203,11.4,16.3,64,0.00,,,0.00,WUHU216HW,2013-10-31 20:32:00,
2013-10-31 16:34:00,67.9,55.2,29.72,South,180,11.4,15.7,64,0.00,,,0.00,WUHU216HW,2013-10-31 20:34:00,
2013-10-31 16:35:00,67.9,55.2,29.72,SSW,203,9.8,15.7,64,0.00,,,0.00,WUHU216HW,2013-10-31 20:35:00,
2013-10-31 16:36:00,67.9,55.2,29.72,SSE,158,14.1,15.7,64,0.00,,,0.00,WUHU216HW,2013-10-31 20:36:00,
2013-10-31 16:38:00,67.9,55.2,29.72,SSW,203,17.9,17.9,64,0.00,,,0.00,WUHU216HW,2013-10-31 20:38:00,
2013-10-31 16:39:00,67.7,55.4,29.73,SSW,203,9.8,17.9,65,0.00,,,0.00,WUHU216HW,2013-10-31 20:39:00,
2013-10-31 16:40:00,67.7,55.4,29.73,SSW,203,9.8,17.9,65,0.00,,,0.00,WUHU216HW,2013-10-31 20:40:00,
2013-10-31 16:42:00,67.7,55.4,29.73,South,180,14.3,17.9,65,0.00,,,0.00,WUHU216HW,2013-10-31 20:42:00,
2013-10-31 16:44:00,67.7,55.4,29.73,South,180,10.5,17.9,65,0.00,,,0.00,WUHU216HW,2013-10-31 20:44:00,
2013-10-31 16:45:00,67.7,55.4,29.73,SSE,158,13.4,17.9,65,0.00,,,0.00,WUHU216HW,2013-10-31 20:45:00,
2013-10-31 16:46:00,67.7,55.4,29.73,SSW,203,13.2,17.9,65,0.00,,,0.00,WUHU216HW,2013-10-31 20:46:00,
2013-10-31 16:47:00,67.5,55.3,29.73,South,180,14.1,17.9,65,0.00,,,0.00,WUHU216HW,2013-10-31 20:47:00,
2013-10-31 16:50:00,67.5,55.3,29.73,SSE,158,12.3,18.6,65,0.00,,,0.00,WUHU216HW,2013-10-31 20:50:00,
2013-10-31 16:51:00,67.3,55.1,29.73,South,180,14.3,18.6,65,0.00,,,0.00,WUHU216HW,2013-10-31 20:51:00,
2013-10-31 16:52:00,67.3,55.1,29.73,South,180,14.3,18.6,65,0.00,,,0.00,WUHU216HW,2013-10-31 20:52:00,
2013-10-31 16:55:00,67.3,55.1,29.72,SE,135,11.2,18.6,65,0.00,,,0.00,WUHU216HW,2013-10-31 20:55:00,
2013-10-31 16:56:00,67.3,55.1,29.73,South,180,17.0,18.6,65,0.00,,,0.00,WUHU216HW,2013-10-31 20:56:00,
2013-10-31 16:58:00,67.3,55.1,29.73,SSE,158,14.1,17.0,65,0.00,,,0.00,WUHU216HW,2013-10-31 20:58:00,
2013-10-31 17:00:00,67.3,55.1,29.73,South,180,15.7,17.0,65,0.00,,,0.00,WUHU216HW,2013-10-31 21:00:00,
2013-10-31 17:01:00,67.1,54.9,29.73,SSW,203,9.8,17.0,65,0.00,,,0.00,WUHU216HW,2013-10-31 21:01:00,
2013-10-31 17:02:00,67.1,54.9,29.73,South,180,14.8,17.0,65,0.00,,,0.00,WUHU216HW,2013-10-31 21:02:00,
2013-10-31 17:04:00,67.1,54.9,29.72,SSW,203,9.6,17.2,65,0.00,,,0.00,WUHU216HW,2013-10-31 21:04:00,
2013-10-31 17:05:00,67.1,54.9,29.73,SSW,203,9.6,17.2,65,0.00,,,0.00,WUHU216HW,2013-10-31 21:05:00,
2013-10-31 17:06:00,67.1,54.9,29.73,SSW,203,9.6,17.2,65,0.00,,,0.00,WUHU216HW,2013-10-31 21:06:00,
2013-10-31 17:08:00,67.0,55.2,29.73,SSW,203,9.2,17.2,66,0.00,,,0.00,WUHU216HW,2013-10-31 21:08:00,
2013-10-31 17:10:00,67.0,55.2,29.72,SSW,203,16.8,17.2,66,0.00,,,0.00,WUHU216HW,2013-10-31 21:10:00,
2013-10-31 17:11:00,67.0,55.2,29.72,SSW,203,18.6,18.6,66,0.00,,,0.00,WUHU216HW,2013-10-31 21:11:00,
2013-10-31 17:12:00,67.0,55.2,29.72,SSW,203,18.6,18.6,66,0.00,,,0.00,WUHU216HW,2013-10-31 21:12:00,
2013-10-31 17:13:00,67.0,55.2,29.72,SSW,203,11.2,18.6,66,0.00,,,0.00,WUHU216HW,2013-10-31 21:13:00,
2013-10-31 17:15:00,67.0,55.2,29.72,South,180,14.5,18.6,66,0.00,,,0.00,WUHU216HW,2013-10-31 21:15:00,
2013-10-31 17:17:00,67.0,55.2,29.72,SSE,158,10.3,18.6,66,0.00,,,0.00,WUHU216HW,2013-10-31 21:17:00,
2013-10-31 17:18:00,67.0,55.2,29.72,SSW,203,11.6,18.6,66,0.00,,,0.00,WUHU216HW,2013-10-31 21:18:00,
2013-10-31 17:20:00,66.8,55.0,29.72,SSW,203,11.9,18.6,66,0.00,,,0.00,WUHU216HW,2013-10-31 21:20:00,
2013-10-31 17:21:00,66.8,55.0,29.72,South,180,10.3,14.5,66,0.00,,,0.00,WUHU216HW,2013-10-31 21:21:00,
2013-10-31 17:22:00,66.6,54.8,29.72,SSW,203,12.1,14.5,66,0.00,,,0.00,WUHU216HW,2013-10-31 21:22:00,
2013-10-31 17:23:00,66.6,54.8,29.72,SSW,203,12.1,14.5,66,0.00,,,0.00,WUHU216HW,2013-10-31 21:23:00,
2013-10-31 17:25:00,66.6,55.3,29.72,South,180,8.5,13.9,67,0.00,,,0.00,WUHU216HW,2013-10-31 21:25:00,
2013-10-31 17:26:00,66.6,55.3,29.72,SSW,203,10.5,13.9,67,0.00,,,0.00,WUHU216HW,2013-10-31 21:26:00,
2013-10-31 17:27:00,66.6,55.3,29.72,SSW,203,13.4,13.9,67,0.00,,,0.00,WUHU216HW,2013-10-31 21:27:00,
2013-10-31 17:28:00,66.6,55.3,29.72,SSW,203,9.4,13.9,67,0.00,,,0.00,WUHU216HW,2013-10-31 21:28:00,
2013-10-31 17:29:00,66.6,55.3,29.72,SSW,203,12.1,13.4,67,0.00,,,0.00,WUHU216HW,2013-10-31 21:29:00,
2013-10-31 17:31:00,66.6,55.3,29.72,South,180,11.4,13.4,67,0.00,,,0.00,WUHU216HW,2013-10-31 21:31:00,
2013-10-31 17:32:00,66.6,54.8,29.72,SSW,203,10.5,13.4,66,0.00,,,0.00,WUHU216HW,2013-10-31 21:32:00,
2013-10-31 17:33:00,66.6,54.8,29.72,SSW,203,9.8,13.4,66,0.00,,,0.00,WUHU216HW,2013-10-31 21:33:00,
2013-10-31 17:34:00,66.6,55.3,29.72,SSW,203,7.6,13.4,67,0.00,,,0.00,WUHU216HW,2013-10-31 21:34:00,
2013-10-31 17:35:00,66.6,55.3,29.72,SSW,203,7.6,13.4,67,0.00,,,0.00,WUHU216HW,2013-10-31 21:35:00,
2013-10-31 17:37:00,66.6,55.3,29.72,South,180,11.9,12.3,67,0.00,,,0.00,WUHU216HW,2013-10-31 21:37:00,
2013-10-31 17:38:00,66.6,55.3,29.72,SSW,203,9.2,12.3,67,0.00,,,0.00,WUHU216HW,2013-10-31 21:38:00,
2013-10-31 17:39:00,66.6,55.3,29.72,SSW,203,9.2,12.3,67,0.00,,,0.00,WUHU216HW,2013-10-31 21:39:00,
2013-10-31 17:41:00,66.6,55.3,29.72,SSW,203,11.0,12.3,67,0.00,,,0.00,WUHU216HW,2013-10-31 21:41:00,
2013-10-31 17:42:00,66.4,55.1,29.72,South,180,10.5,12.3,67,0.00,,,0.00,WUHU216HW,2013-10-31 21:42:00,
2013-10-31 17:44:00,66.4,55.1,29.72,South,180,6.5,12.3,67,0.00,,,0.00,WUHU216HW,2013-10-31 21:44:00,
2013-10-31 17:45:00,66.2,54.9,29.72,SSW,203,14.5,14.5,67,0.00,,,0.00,WUHU216HW,2013-10-31 21:45:00,
2013-10-31 17:46:00,66.2,54.9,29.72,South,180,10.5,14.5,67,0.00,,,0.00,WUHU216HW,2013-10-31 21:46:00,
2013-10-31 17:47:00,66.2,54.9,29.72,SSW,203,11.4,14.5,67,0.00,,,0.00,WUHU216HW,2013-10-31 21:47:00,
2013-10-31 17:49:00,66.2,54.9,29.72,South,180,10.5,14.5,67,0.00,,,0.00,WUHU216HW,2013-10-31 21:49:00,
2013-10-31 17:51:00,66.2,55.4,29.72,South,180,6.5,14.5,68,0.00,,,0.00,WUHU216HW,2013-10-31 21:51:00,
2013-10-31 17:53:00,66.1,55.2,29.72,SSW,203,10.3,14.5,68,0.00,,,0.00,WUHU216HW,2013-10-31 21:53:00,
2013-10-31 17:54:00,66.1,55.2,29.72,SSW,203,6.3,12.5,68,0.00,,,0.00,WUHU216HW,2013-10-31 21:54:00,
2013-10-31 17:55:00,66.1,55.2,29.72,SSW,203,6.3,12.5,68,0.00,,,0.00,WUHU216HW,2013-10-31 21:55:00,
2013-10-31 17:56:00,65.9,55.0,29.72,SSW,203,7.4,12.5,68,0.00,,,0.00,WUHU216HW,2013-10-31 21:56:00,
2013-10-31 17:58:00,65.9,55.0,29.72,SSE,158,7.8,12.5,68,0.00,,,0.00,WUHU216HW,2013-10-31 21:58:00,
2013-10-31 17:59:00,65.9,55.0,29.72,SW,225,8.5,12.5,68,0.00,,,0.00,WUHU216HW,2013-10-31 21:59:00,
2013-10-31 18:00:00,65.9,55.0,29.72,SSW,203,9.8,12.5,68,0.00,,,0.00,WUHU216HW,2013-10-31 22:00:00,
2013-10-31 18:01:00,65.9,55.0,29.72,South,180,8.5,11.4,68,0.00,,,0.00,WUHU216HW,2013-10-31 22:01:00,
2013-10-31 18:02:00,65.9,55.0,29.72,SSE,158,8.5,11.4,68,0.00,,,0.00,WUHU216HW,2013-10-31 22:02:00,
2013-10-31 18:03:00,65.7,54.8,29.72,SE,135,8.7,11.4,68,0.00,,,0.00,WUHU216HW,2013-10-31 22:03:00,
2013-10-31 18:04:00,65.9,55.0,29.72,South,180,9.8,11.4,68,0.00,,,0.00,WUHU216HW,2013-10-31 22:04:00,
2013-10-31 18:06:00,65.7,54.8,29.72,SSW,203,9.8,11.4,68,0.00,,,0.00,WUHU216HW,2013-10-31 22:06:00,
2013-10-31 18:07:00,65.7,55.3,29.72,South,180,8.7,11.4,69,0.00,,,0.00,WUHU216HW,2013-10-31 22:07:00,
2013-10-31 18:08:00,65.7,55.3,29.72,SSW,203,9.8,9.8,69,0.00,,,0.00,WUHU216HW,2013-10-31 22:08:00,
2013-10-31 18:09:00,65.7,55.3,29.73,South,180,9.2,9.8,69,0.00,,,0.00,WUHU216HW,2013-10-31 22:09:00,
2013-10-31 18:10:00,65.7,55.3,29.72,SSW,203,9.8,9.8,69,0.00,,,0.00,WUHU216HW,2013-10-31 22:10:00,
2013-10-31 18:12:00,65.5,55.1,29.72,SSW,203,6.5,11.4,69,0.00,,,0.00,WUHU216HW,2013-10-31 22:12:00,
2013-10-31 18:13:00,65.5,55.1,29.72,South,180,8.1,11.4,69,0.00,,,0.00,WUHU216HW,2013-10-31 22:13:00,
2013-10-31 18:14:00,65.5,55.1,29.72,SSW,203,12.8,12.8,69,0.00,,,0.00,WUHU216HW,2013-10-31 22:14:00,
2013-10-31 18:15:00,65.5,55.1,29.72,SSW,203,10.5,12.8,69,0.00,,,0.00,WUHU216HW,2013-10-31 22:15:00,
2013-10-31 18:18:00,65.3,55.4,29.72,South,180,8.9,12.8,70,0.00,,,0.00,WUHU216HW,2013-10-31 22:18:00,
2013-10-31 18:19:00,65.3,55.4,29.72,SSW,203,11.4,12.8,70,0.00,,,0.00,WUHU216HW,2013-10-31 22:19:00,
2013-10-31 18:20:00,65.3,55.4,29.72,South,180,12.5,12.8,70,0.00,,,0.00,WUHU216HW,2013-10-31 22:20:00,
2013-10-31 18:21:00,65.3,55.4,29.72,South,180,12.5,12.8,70,0.00,,,0.00,WUHU216HW,2013-10-31 22:21:00,
2013-10-31 18:24:00,65.2,55.2,29.73,SSW,203,10.5,12.5,70,0.00,,,0.00,WUHU216HW,2013-10-31 22:24:00,
2013-10-31 18:25:00,65.2,55.2,29.73,SSW,203,10.5,12.5,70,0.00,,,0.00,WUHU216HW,2013-10-31 22:25:00,
2013-10-31 18:26:00,65.2,55.2,29.73,South,180,11.9,12.5,70,0.00,,,0.00,WUHU216HW,2013-10-31 22:26:00,
2013-10-31 18:31:00,65.0,55.0,29.73,SW,225,11.4,12.1,70,0.00,,,0.00,WUHU216HW,2013-10-31 22:31:00,
2013-10-31 18:32:00,65.0,55.4,29.73,SW,225,8.5,12.1,71,0.00,,,0.00,WUHU216HW,2013-10-31 22:32:00,
2013-10-31 18:33:00,65.0,55.4,29.73,SSW,203,6.9,12.1,71,0.00,,,0.00,WUHU216HW,2013-10-31 22:33:00,
2013-10-31 18:36:00,64.8,55.3,29.73,SSW,203,7.6,11.9,71,0.00,,,0.00,WUHU216HW,2013-10-31 22:36:00,
2013-10-31 18:37:00,64.8,55.3,29.73,SSE,158,7.2,11.9,71,0.00,,,0.00,WUHU216HW,2013-10-31 22:37:00,
2013-10-31 18:38:00,64.8,55.3,29.73,South,180,9.2,11.4,71,0.00,,,0.00,WUHU216HW,2013-10-31 22:38:00,
2013-10-31 18:39:00,64.8,55.3,29.73,South,180,9.2,11.4,71,0.00,,,0.00,WUHU216HW,2013-10-31 22:39:00,
2013-10-31 18:41:00,64.8,55.3,29.72,SSE,158,9.8,9.8,71,0.00,,,0.00,WUHU216HW,2013-10-31 22:41:00,
2013-10-31 18:42:00,64.8,55.3,29.72,South,180,9.6,9.8,71,0.00,,,0.00,WUHU216HW,2013-10-31 22:42:00,
2013-10-31 18:43:00,64.6,55.1,29.72,SSW,203,7.6,9.8,71,0.00,,,0.00,WUHU216HW,2013-10-31 22:43:00,
2013-10-31 18:44:00,64.6,55.1,29.72,SSW,203,7.6,9.8,71,0.00,,,0.00,WUHU216HW,2013-10-31 22:44:00,
2013-10-31 18:47:00,64.6,55.1,29.72,South,180,7.8,9.8,71,0.00,,,0.00,WUHU216HW,2013-10-31 22:47:00,
2013-10-31 18:49:00,64.6,55.1,29.73,South,180,8.7,9.8,71,0.00,,,0.00,WUHU216HW,2013-10-31 22:49:00,
2013-10-31 18:50:00,64.6,55.5,29.72,South,180,8.1,9.8,72,0.00,,,0.00,WUHU216HW,2013-10-31 22:50:00,
2013-10-31 18:52:00,64.6,55.5,29.72,SSW,203,8.5,8.7,72,0.00,,,0.00,WUHU216HW,2013-10-31 22:52:00,
2013-10-31 18:54:00,64.6,55.5,29.72,South,180,7.4,8.7,72,0.00,,,0.00,WUHU216HW,2013-10-31 22:54:00,
2013-10-31 18:56:00,64.6,55.1,29.72,SSW,203,9.8,9.8,71,0.00,,,0.00,WUHU216HW,2013-10-31 22:56:00,
2013-10-31 18:58:00,64.4,55.3,29.72,SSW,203,6.3,9.8,72,0.00,,,0.00,WUHU216HW,2013-10-31 22:58:00,
2013-10-31 19:00:00,64.4,55.3,29.72,SSE,158,6.5,9.8,72,0.00,,,0.00,WUHU216HW,2013-10-31 23:00:00,
2013-10-31 19:01:00,64.4,55.3,29.72,SSW,203,7.6,9.8,72,0.00,,,0.00,WUHU216HW,2013-10-31 23:01:00,
2013-10-31 19:03:00,64.3,55.1,29.72,SSW,203,5.6,9.8,72,0.00,,,0.00,WUHU216HW,2013-10-31 23:03:00,
2013-10-31 19:04:00,64.3,55.1,29.71,South,180,5.1,9.8,72,0.00,,,0.00,WUHU216HW,2013-10-31 23:04:00,
2013-10-31 19:05:00,64.3,55.1,29.70,SSW,203,6.9,8.5,72,0.00,,,0.00,WUHU216HW,2013-10-31 23:05:00,
2013-10-31 19:08:00,64.3,55.1,29.71,SSW,203,10.1,11.6,72,0.00,,,0.00,WUHU216HW,2013-10-31 23:08:00,
2013-10-31 19:09:00,64.3,55.1,29.71,SSE,158,8.9,11.6,72,0.00,,,0.00,WUHU216HW,2013-10-31 23:09:00,
2013-10-31 19:10:00,64.3,55.1,29.71,SSW,203,8.5,11.6,72,0.00,,,0.00,WUHU216HW,2013-10-31 23:10:00,
2013-10-31 19:11:00,64.3,55.1,29.71,SSW,203,8.5,11.6,72,0.00,,,0.00,WUHU216HW,2013-10-31 23:11:00,
2013-10-31 19:13:00,64.1,54.9,29.71,SSW,203,9.4,11.6,72,0.00,,,0.00,WUHU216HW,2013-10-31 23:13:00,
2013-10-31 19:14:00,64.3,55.1,29.71,SSW,203,7.4,11.6,72,0.00,,,0.00,WUHU216HW,2013-10-31 23:14:00,
2013-10-31 19:16:00,64.3,55.1,29.71,South,180,12.8,12.8,72,0.00,,,0.00,WUHU216HW,2013-10-31 23:16:00,
2013-10-31 19:17:00,64.3,55.1,29.71,SSW,203,10.3,12.8,72,0.00,,,0.00,WUHU216HW,2013-10-31 23:17:00,
2013-10-31 19:18:00,64.4,55.3,29.70,South,180,9.8,12.8,72,0.00,,,0.00,WUHU216HW,2013-10-31 23:18:00,
2013-10-31 19:20:00,64.3,55.1,29.71,SW,225,10.1,12.8,72,0.00,,,0.00,WUHU216HW,2013-10-31 23:20:00,
2013-10-31 19:21:00,64.3,55.1,29.70,SSE,158,6.9,12.8,72,0.00,,,0.00,WUHU216HW,2013-10-31 23:21:00,
2013-10-31 19:22:00,64.3,55.1,29.70,South,180,7.6,12.8,72,0.00,,,0.00,WUHU216HW,2013-10-31 23:22:00,
2013-10-31 19:23:00,64.3,55.1,29.70,South,180,7.6,12.8,72,0.00,,,0.00,WUHU216HW,2013-10-31 23:23:00,
2013-10-31 19:25:00,64.1,54.9,29.70,South,180,10.5,11.0,72,0.00,,,0.00,WUHU216HW,2013-10-31 23:25:00,
2013-10-31 19:26:00,64.1,54.9,29.70,South,180,10.5,11.0,72,0.00,,,0.00,WUHU216HW,2013-10-31 23:26:00,
2013-10-31 19:27:00,64.3,55.1,29.70,SSW,203,9.4,11.0,72,0.00,,,0.00,WUHU216HW,2013-10-31 23:27:00,
2013-10-31 19:28:00,64.3,55.1,29.70,SSW,203,9.4,11.0,72,0.00,,,0.00,WUHU216HW,2013-10-31 23:28:00,
2013-10-31 19:29:00,64.3,55.1,29.70,SSW,203,12.1,14.8,72,0.00,,,0.00,WUHU216HW,2013-10-31 23:29:00,
2013-10-31 19:31:00,64.3,55.1,29.70,SSE,158,7.8,14.8,72,0.00,,,0.00,WUHU216HW,2013-10-31 23:31:00,
2013-10-31 19:32:00,64.3,55.1,29.70,SSW,203,9.6,14.8,72,0.00,,,0.00,WUHU216HW,2013-10-31 23:32:00,
2013-10-31 19:34:00,64.3,55.1,29.70,SSW,203,10.1,14.8,72,0.00,,,0.00,WUHU216HW,2013-10-31 23:34:00,
2013-10-31 19:36:00,64.3,55.1,29.71,SSW,203,9.2,14.8,72,0.00,,,0.00,WUHU216HW,2013-10-31 23:36:00,
2013-10-31 19:39:00,64.1,55.3,29.71,SSW,203,9.2,12.8,73,0.00,,,0.00,WUHU216HW,2013-10-31 23:39:00,
2013-10-31 19:41:00,64.1,55.3,29.71,South,180,10.3,12.8,73,0.00,,,0.00,WUHU216HW,2013-10-31 23:41:00,
2013-10-31 19:42:00,64.1,55.3,29.71,SSW,203,9.8,12.8,73,0.00,,,0.00,WUHU216HW,2013-10-31 23:42:00,
2013-10-31 19:43:00,64.1,55.3,29.71,SSW,203,12.1,12.1,73,0.00,,,0.00,WUHU216HW,2013-10-31 23:43:00,
2013-10-31 19:44:00,64.1,55.3,29.71,SSW,203,9.8,12.1,73,0.00,,,0.00,WUHU216HW,2013-10-31 23:44:00,
2013-10-31 19:45:00,64.1,55.3,29.71,SSW,203,7.6,12.1,73,0.00,,,0.00,WUHU216HW,2013-10-31 23:45:00,
2013-10-31 19:48:00,64.1,55.3,29.71,SSW,203,9.4,12.1,73,0.00,,,0.00,WUHU216HW,2013-10-31 23:48:00,
2013-10-31 19:49:00,64.1,55.3,29.70,South,180,7.6,12.1,73,0.00,,,0.00,WUHU216HW,2013-10-31 23:49:00,
2013-10-31 19:50:00,64.1,55.3,29.71,South,180,7.6,12.1,73,0.00,,,0.00,WUHU216HW,2013-10-31 23:50:00,
2013-10-31 19:53:00,63.9,55.1,29.71,SSW,203,9.2,11.4,73,0.00,,,0.00,WUHU216HW,2013-10-31 23:53:00,
2013-10-31 19:55:00,63.9,55.1,29.71,South,180,6.3,11.4,73,0.00,,,0.00,WUHU216HW,2013-10-31 23:55:00,
2013-10-31 19:56:00,63.9,55.1,29.71,SSW,203,8.1,11.4,73,0.00,,,0.00,WUHU216HW,2013-10-31 23:56:00,
2013-10-31 19:57:00,63.7,54.9,29.71,SSW,203,4.9,9.2,73,0.00,,,0.00,WUHU216HW,2013-10-31 23:57:00,
2013-10-31 19:59:00,63.7,54.9,29.71,SSW,203,6.9,9.2,73,0.00,,,0.00,WUHU216HW,2013-10-31 23:59:00,
2013-10-31 20:00:00,63.7,54.9,29.70,South,180,11.0,11.0,73,0.00,,,0.00,WUHU216HW,2013-11-01 00:00:00,
2013-10-31 20:01:00,63.7,54.9,29.70,SSW,203,7.4,11.0,73,0.00,,,0.00,WUHU216HW,2013-11-01 00:01:00,
2013-10-31 20:02:00,63.7,54.9,29.70,SSW,203,9.2,11.0,73,0.00,,,0.00,WUHU216HW,2013-11-01 00:02:00,
2013-10-31 20:03:00,63.9,55.1,29.70,SSE,158,5.4,11.0,73,0.00,,,0.00,WUHU216HW,2013-11-01 00:03:00,
2013-10-31 20:04:00,63.7,54.9,29.70,SSW,203,11.6,11.6,73,0.00,,,0.00,WUHU216HW,2013-11-01 00:04:00,
2013-10-31 20:05:00,63.9,55.1,29.70,SSW,203,8.7,11.6,73,0.00,,,0.00,WUHU216HW,2013-11-01 00:05:00,
2013-10-31 20:07:00,63.9,55.1,29.70,SW,225,7.4,11.6,73,0.00,,,0.00,WUHU216HW,2013-11-01 00:07:00,
2013-10-31 20:08:00,63.9,55.1,29.70,SSW,203,10.1,11.6,73,0.00,,,0.00,WUHU216HW,2013-11-01 00:08:00,
2013-10-31 20:09:00,63.7,54.9,29.70,South,180,11.4,11.6,73,0.00,,,0.00,WUHU216HW,2013-11-01 00:09:00,
2013-10-31 20:10:00,63.7,54.9,29.70,SSW,203,10.5,11.6,73,0.00,,,0.00,WUHU216HW,2013-11-01 00:10:00,
2013-10-31 20:12:00,63.9,55.1,29.70,South,180,11.4,11.6,73,0.00,,,0.00,WUHU216HW,2013-11-01 00:12:00,
2013-10-31 20:13:00,63.9,55.4,29.70,SSE,158,8.7,11.6,74,0.00,,,0.00,WUHU216HW,2013-11-01 00:13:00,
2013-10-31 20:15:00,63.7,55.3,29.70,South,180,8.7,11.4,74,0.00,,,0.00,WUHU216HW,2013-11-01 00:15:00,
2013-10-31 20:16:00,63.7,55.3,29.69,South,180,9.2,11.4,74,0.00,,,0.00,WUHU216HW,2013-11-01 00:16:00,
2013-10-31 20:17:00,63.7,55.3,29.70,SSW,203,9.4,11.4,74,0.00,,,0.00,WUHU216HW,2013-11-01 00:17:00,
2013-10-31 20:19:00,63.7,55.3,29.70,SSW,203,9.4,11.4,74,0.00,,,0.00,WUHU216HW,2013-11-01 00:19:00,
2013-10-31 20:20:00,63.7,55.3,29.70,SSW,203,9.4,11.4,74,0.00,,,0.00,WUHU216HW,2013-11-01 00:20:00,
2013-10-31 20:21:00,63.5,55.1,29.69,SSW,203,5.6,11.4,74,0.00,,,0.00,WUHU216HW,2013-11-01 00:21:00,
2013-10-31 20:24:00,63.5,55.1,29.69,SW,225,12.5,12.5,74,0.00,,,0.00,WUHU216HW,2013-11-01 00:24:00,
2013-10-31 20:25:00,63.4,54.9,29.69,SSW,203,5.1,12.5,74,0.00,,,0.00,WUHU216HW,2013-11-01 00:25:00,
2013-10-31 20:26:00,63.4,54.9,29.69,SSW,203,10.1,12.5,74,0.00,,,0.00,WUHU216HW,2013-11-01 00:26:00,
2013-10-31 20:27:00,63.4,55.3,29.69,SSW,203,8.3,13.4,75,0.00,,,0.00,WUHU216HW,2013-11-01 00:27:00,
2013-10-31 20:28:00,63.4,55.3,29.69,SSW,203,6.5,13.4,75,0.00,,,0.00,WUHU216HW,2013-11-01 00:28:00,
2013-10-31 20:29:00,63.4,55.3,29.69,SSW,203,9.8,13.4,75,0.00,,,0.00,WUHU216HW,2013-11-01 00:29:00,
2013-10-31 20:30:00,63.4,55.3,29.69,SSW,203,11.4,13.4,75,0.00,,,0.00,WUHU216HW,2013-11-01 00:30:00,
2013-10-31 20:31:00,63.4,55.3,29.69,SSW,203,5.4,13.4,75,0.00,,,0.00,WUHU216HW,2013-11-01 00:31:00,
2013-10-31 20:32:00,63.4,55.3,29.69,SSW,203,12.1,13.4,75,0.00,,,0.00,WUHU216HW,2013-11-01 00:32:00,
2013-10-31 20:33:00,63.4,54.9,29.69,SSW,203,10.1,13.4,74,0.00,,,0.00,WUHU216HW,2013-11-01 00:33:00,
2013-10-31 20:35:00,63.4,55.3,29.69,South,180,5.8,13.4,75,0.00,,,0.00,WUHU216HW,2013-11-01 00:35:00,
2013-10-31 20:36:00,63.4,54.9,29.69,South,180,8.5,12.1,74,0.00,,,0.00,WUHU216HW,2013-11-01 00:36:00,
2013-10-31 20:37:00,63.5,55.1,29.69,SSW,203,9.8,12.1,74,0.00,,,0.00,WUHU216HW,2013-11-01 00:37:00,
2013-10-31 20:38:00,63.5,55.1,29.69,South,180,9.6,12.1,74,0.00,,,0.00,WUHU216HW,2013-11-01 00:38:00,
2013-10-31 20:39:00,63.7,55.3,29.69,SSW,203,11.6,12.1,74,0.00,,,0.00,WUHU216HW,2013-11-01 00:39:00,
2013-10-31 20:42:00,63.7,55.3,29.69,SW,225,7.6,11.6,74,0.00,,,0.00,WUHU216HW,2013-11-01 00:42:00,
2013-10-31 20:43:00,63.9,55.4,29.69,SSW,203,10.5,11.6,74,0.00,,,0.00,WUHU216HW,2013-11-01 00:43:00,
2013-10-31 20:44:00,63.9,55.4,29.69,SSW,203,10.3,11.6,74,0.00,,,0.00,WUHU216HW,2013-11-01 00:44:00,
2013-10-31 20:45:00,63.9,55.4,29.69,South,180,6.5,11.6,74,0.00,,,0.00,WUHU216HW,2013-11-01 00:45:00,
2013-10-31 20:47:00,63.9,55.4,29.69,SW,225,11.4,12.3,74,0.00,,,0.00,WUHU216HW,2013-11-01 00:47:00,
2013-10-31 20:48:00,63.9,55.4,29.69,SW,225,11.4,12.3,74,0.00,,,0.00,WUHU216HW,2013-11-01 00:48:00,
2013-10-31 20:49:00,63.9,55.4,29.68,South,180,9.2,12.3,74,0.00,,,0.00,WUHU216HW,2013-11-01 00:49:00,
2013-10-31 20:51:00,63.7,55.3,29.68,South,180,8.5,12.3,74,0.00,,,0.00,WUHU216HW,2013-11-01 00:51:00,
2013-10-31 20:52:00,63.7,55.3,29.68,SSW,203,8.9,12.3,74,0.00,,,0.00,WUHU216HW,2013-11-01 00:52:00,
2013-10-31 20:53:00,63.7,55.3,29.68,SSE,158,7.8,12.3,74,0.00,,,0.00,WUHU216HW,2013-11-01 00:53:00,
2013-10-31 20:54:00,63.7,55.3,29.68,WSW,248,8.3,12.3,74,0.00,,,0.00,WUHU216HW,2013-11-01 00:54:00,
2013-10-31 20:56:00,63.7,55.3,29.67,SSW,203,8.5,12.3,74,0.00,,,0.00,WUHU216HW,2013-11-01 00:56:00,
2013-10-31 20:57:00,63.7,55.3,29.67,SSW,203,8.5,11.4,74,0.00,,,0.00,WUHU216HW,2013-11-01 00:57:00,
2013-10-31 20:58:00,63.5,55.1,29.67,SSW,203,6.9,9.2,74,0.00,,,0.00,WUHU216HW,2013-11-01 00:58:00,
2013-10-31 20:59:00,63.5,55.1,29.67,SSW,203,7.8,8.9,74,0.00,,,0.00,WUHU216HW,2013-11-01 00:59:00,
2013-10-31 21:00:00,63.5,55.1,29.67,South,180,10.1,10.1,74,0.00,,,0.00,WUHU216HW,2013-11-01 01:00:00,
2013-10-31 21:01:00,63.5,55.1,29.67,SSW,203,9.8,10.1,74,0.00,,,0.00,WUHU216HW,2013-11-01 01:01:00,
2013-10-31 21:02:00,63.5,55.1,29.67,SSW,203,12.1,12.1,74,0.00,,,0.00,WUHU216HW,2013-11-01 01:02:00,
2013-10-31 21:04:00,63.4,54.9,29.67,SSW,203,7.8,12.1,74,0.00,,,0.00,WUHU216HW,2013-11-01 01:04:00,
2013-10-31 21:06:00,63.4,55.3,29.67,SSW,203,8.5,12.1,75,0.00,,,0.00,WUHU216HW,2013-11-01 01:06:00,
2013-10-31 21:08:00,63.4,55.3,29.67,SSW,203,6.7,12.1,75,0.00,,,0.00,WUHU216HW,2013-11-01 01:08:00,
2013-10-31 21:11:00,63.2,55.1,29.67,SSW,203,8.3,12.1,75,0.00,,,0.00,WUHU216HW,2013-11-01 01:11:00,
2013-10-31 21:12:00,63.2,55.1,29.67,SW,225,9.2,9.8,75,0.00,,,0.00,WUHU216HW,2013-11-01 01:12:00,
2013-10-31 21:13:00,63.2,55.4,29.67,SW,225,5.8,9.8,76,0.00,,,0.00,WUHU216HW,2013-11-01 01:13:00,
2013-10-31 21:14:00,63.2,55.4,29.67,SSW,203,6.7,9.8,76,0.00,,,0.00,WUHU216HW,2013-11-01 01:14:00,
2013-10-31 21:17:00,63.0,55.3,29.67,SSW,203,10.1,11.6,76,0.00,,,0.00,WUHU216HW,2013-11-01 01:17:00,
2013-10-31 21:18:00,63.0,55.3,29.67,SSW,203,10.3,11.6,76,0.00,,,0.00,WUHU216HW,2013-11-01 01:18:00,
2013-10-31 21:19:00,63.0,55.3,29.67,SW,225,9.6,11.6,76,0.00,,,0.00,WUHU216HW,2013-11-01 01:19:00,
2013-10-31 21:23:00,63.0,55.3,29.67,SSW,203,7.8,11.6,76,0.00,,,0.00,WUHU216HW,2013-11-01 01:23:00,
2013-10-31 21:24:00,63.0,55.3,29.67,SSW,203,7.8,11.6,76,0.00,,,0.00,WUHU216HW,2013-11-01 01:24:00,
2013-10-31 21:25:00,63.0,55.3,29.67,SW,225,5.8,11.6,76,0.00,,,0.00,WUHU216HW,2013-11-01 01:25:00,
2013-10-31 21:29:00,63.0,55.3,29.66,South,180,6.9,9.2,76,0.00,,,0.00,WUHU216HW,2013-11-01 01:29:00,
2013-10-31 21:30:00,63.0,55.3,29.66,SW,225,8.3,9.2,76,0.00,,,0.00,WUHU216HW,2013-11-01 01:30:00,
2013-10-31 21:31:00,63.0,55.3,29.66,SSW,203,8.5,9.2,76,0.00,,,0.00,WUHU216HW,2013-11-01 01:31:00,
2013-10-31 21:35:00,63.4,55.3,29.66,SSW,203,12.1,12.1,75,0.00,,,0.00,WUHU216HW,2013-11-01 01:35:00,
2013-10-31 21:36:00,63.5,55.4,29.65,SSW,203,11.4,12.1,75,0.00,,,0.00,WUHU216HW,2013-11-01 01:36:00,
2013-10-31 21:38:00,63.7,55.3,29.66,SSW,203,11.2,12.1,74,0.00,,,0.00,WUHU216HW,2013-11-01 01:38:00,
2013-10-31 21:40:00,63.5,55.4,29.65,South,180,7.4,12.1,75,0.00,,,0.00,WUHU216HW,2013-11-01 01:40:00,
2013-10-31 21:41:00,63.5,55.4,29.65,South,180,7.4,12.1,75,0.00,,,0.00,WUHU216HW,2013-11-01 01:41:00,
2013-10-31 21:42:00,63.5,55.4,29.65,SSW,203,10.1,12.1,75,0.00,,,0.00,WUHU216HW,2013-11-01 01:42:00,
2013-10-31 21:44:00,63.7,55.3,29.65,South,180,9.6,12.1,74,0.00,,,0.00,WUHU216HW,2013-11-01 01:44:00,
2013-10-31 21:46:00,63.7,55.3,29.65,SSE,158,11.4,11.4,74,0.00,,,0.00,WUHU216HW,2013-11-01 01:46:00,
2013-10-31 21:47:00,63.7,55.3,29.65,South,180,9.2,11.4,74,0.00,,,0.00,WUHU216HW,2013-11-01 01:47:00,
2013-10-31 21:49:00,63.7,55.6,29.65,SSE,158,6.9,11.4,75,0.00,,,0.00,WUHU216HW,2013-11-01 01:49:00,
2013-10-31 21:51:00,63.7,55.3,29.65,South,180,7.4,11.4,74,0.00,,,0.00,WUHU216HW,2013-11-01 01:51:00,
2013-10-31 21:52:00,63.7,55.3,29.65,SSW,203,9.8,11.4,74,0.00,,,0.00,WUHU216HW,2013-11-01 01:52:00,
2013-10-31 21:53:00,63.7,55.3,29.65,South,180,8.9,11.4,74,0.00,,,0.00,WUHU216HW,2013-11-01 01:53:00,
2013-10-31 21:55:00,63.7,55.3,29.65,SSE,158,8.3,11.4,74,0.00,,,0.00,WUHU216HW,2013-11-01 01:55:00,
2013-10-31 21:56:00,63.7,55.3,29.65,SSW,203,9.4,11.0,74,0.00,,,0.00,WUHU216HW,2013-11-01 01:56:00,
2013-10-31 21:57:00,63.7,55.3,29.65,SSW,203,7.6,11.0,74,0.00,,,0.00,WUHU216HW,2013-11-01 01:57:00,
2013-10-31 21:58:00,63.7,55.3,29.65,SSW,203,12.1,12.1,74,0.00,,,0.00,WUHU216HW,2013-11-01 01:58:00,
2013-10-31 22:00:00,63.7,55.3,29.65,SSW,203,10.5,12.1,74,0.00,,,0.00,WUHU216HW,2013-11-01 02:00:00,
2013-10-31 22:02:00,63.7,55.6,29.65,South,180,6.9,12.1,75,0.00,,,0.00,WUHU216HW,2013-11-01 02:02:00,
2013-10-31 22:03:00,63.7,55.6,29.65,SW,225,7.2,12.1,75,0.00,,,0.00,WUHU216HW,2013-11-01 02:03:00,
2013-10-31 22:04:00,63.7,55.6,29.65,SW,225,10.5,12.1,75,0.00,,,0.00,WUHU216HW,2013-11-01 02:04:00,
2013-10-31 22:05:00,63.7,55.6,29.65,SSW,203,6.9,12.1,75,0.00,,,0.00,WUHU216HW,2013-11-01 02:05:00,
2013-10-31 22:08:00,63.7,55.6,29.65,SSW,203,10.1,10.5,75,0.00,,,0.00,WUHU216HW,2013-11-01 02:08:00,
2013-10-31 22:09:00,63.7,55.6,29.65,SW,225,8.7,10.5,75,0.00,,,0.00,WUHU216HW,2013-11-01 02:09:00,
2013-10-31 22:10:00,63.7,55.6,29.65,SW,225,9.6,10.5,75,0.00,,,0.00,WUHU216HW,2013-11-01 02:10:00,
2013-10-31 22:11:00,63.7,55.6,29.65,SSW,203,8.9,10.5,75,0.00,,,0.00,WUHU216HW,2013-11-01 02:11:00,
2013-10-31 22:14:00,63.7,55.6,29.65,South,180,8.5,10.5,75,0.00,,,0.00,WUHU216HW,2013-11-01 02:14:00,
2013-10-31 22:16:00,63.7,55.6,29.64,SSW,203,9.6,10.1,75,0.00,,,0.00,WUHU216HW,2013-11-01 02:16:00,
2013-10-31 22:18:00,63.7,55.6,29.64,SW,225,13.9,13.9,75,0.00,,,0.00,WUHU216HW,2013-11-01 02:18:00,
2013-10-31 22:19:00,63.9,55.8,29.64,South,180,7.4,13.9,75,0.00,,,0.00,WUHU216HW,2013-11-01 02:19:00,
2013-10-31 22:20:00,63.9,55.4,29.64,SW,225,9.8,13.9,74,0.00,,,0.00,WUHU216HW,2013-11-01 02:20:00,
2013-10-31 22:22:00,63.9,55.8,29.64,SSW,203,7.6,13.9,75,0.00,,,0.00,WUHU216HW,2013-11-01 02:22:00,
2013-10-31 22:23:00,63.9,55.8,29.64,South,180,7.6,13.9,75,0.00,,,0.00,WUHU216HW,2013-11-01 02:23:00,
2013-10-31 22:24:00,63.9,55.4,29.64,SSW,203,10.5,13.9,74,0.00,,,0.00,WUHU216HW,2013-11-01 02:24:00,
2013-10-31 22:26:00,64.1,55.6,29.64,SSW,203,12.1,13.9,74,0.00,,,0.00,WUHU216HW,2013-11-01 02:26:00,
2013-10-31 22:27:00,64.1,55.6,29.64,SSW,203,13.4,13.4,74,0.00,,,0.00,WUHU216HW,2013-11-01 02:27:00,
2013-10-31 22:30:00,64.3,55.8,29.64,SSW,203,13.4,16.1,74,0.00,,,0.00,WUHU216HW,2013-11-01 02:30:00,
2013-10-31 22:31:00,64.3,55.8,29.63,South,180,11.6,16.1,74,0.00,,,0.00,WUHU216HW,2013-11-01 02:31:00,
2013-10-31 22:33:00,64.3,55.8,29.63,South,180,9.6,16.1,74,0.00,,,0.00,WUHU216HW,2013-11-01 02:33:00,
2013-10-31 22:34:00,64.3,55.8,29.63,SSW,203,9.4,16.1,74,0.00,,,0.00,WUHU216HW,2013-11-01 02:34:00,
2013-10-31 22:36:00,64.3,55.8,29.63,South,180,10.7,16.1,74,0.00,,,0.00,WUHU216HW,2013-11-01 02:36:00,
2013-10-31 22:37:00,64.3,55.8,29.63,South,180,9.2,16.1,74,0.00,,,0.00,WUHU216HW,2013-11-01 02:37:00,
2013-10-31 22:38:00,64.3,55.8,29.63,SSW,203,9.8,16.1,74,0.00,,,0.00,WUHU216HW,2013-11-01 02:38:00,
2013-10-31 22:39:00,64.3,55.8,29.63,SSW,203,9.8,16.1,74,0.00,,,0.00,WUHU216HW,2013-11-01 02:39:00,
2013-10-31 22:41:00,64.1,55.6,29.63,South,180,9.8,12.3,74,0.00,,,0.00,WUHU216HW,2013-11-01 02:41:00,
2013-10-31 22:42:00,64.3,55.8,29.63,SSW,203,12.8,16.1,74,0.00,,,0.00,WUHU216HW,2013-11-01 02:42:00,
2013-10-31 22:44:00,64.4,56.0,29.63,SW,225,11.0,16.1,74,0.00,,,0.00,WUHU216HW,2013-11-01 02:44:00,
2013-10-31 22:45:00,64.3,55.8,29.63,South,180,9.8,16.1,74,0.00,,,0.00,WUHU216HW,2013-11-01 02:45:00,
2013-10-31 22:47:00,64.3,55.8,29.63,SSW,203,8.9,16.1,74,0.00,,,0.00,WUHU216HW,2013-11-01 02:47:00,
2013-10-31 22:48:00,64.3,55.8,29.62,SSW,203,12.1,16.1,74,0.00,,,0.00,WUHU216HW,2013-11-01 02:48:00,
2013-10-31 22:50:00,64.3,55.8,29.62,SSW,203,11.4,16.1,74,0.00,,,0.00,WUHU216HW,2013-11-01 02:50:00,
2013-10-31 22:52:00,64.3,55.8,29.63,SSE,158,6.9,12.5,74,0.00,,,0.00,WUHU216HW,2013-11-01 02:52:00,
2013-10-31 22:53:00,64.3,55.8,29.63,SSE,158,6.9,12.5,74,0.00,,,0.00,WUHU216HW,2013-11-01 02:53:00,
2013-10-31 22:54:00,64.1,55.6,29.63,SSW,203,7.8,12.1,74,0.00,,,0.00,WUHU216HW,2013-11-01 02:54:00,
2013-10-31 22:55:00,64.1,55.6,29.63,SSW,203,7.8,12.1,74,0.00,,,0.00,WUHU216HW,2013-11-01 02:55:00,
2013-10-31 22:57:00,64.3,55.8,29.62,SSW,203,11.4,11.4,74,0.00,,,0.00,WUHU216HW,2013-11-01 02:57:00,
2013-10-31 22:58:00,64.3,55.8,29.62,SSW,203,11.4,11.4,74,0.00,,,0.00,WUHU216HW,2013-11-01 02:58:00,
2013-10-31 22:59:00,64.3,55.8,29.62,SSW,203,12.3,12.3,74,0.00,,,0.00,WUHU216HW,2013-11-01 02:59:00,
2013-10-31 23:00:00,64.4,56.0,29.62,SSW,203,11.9,13.4,74,0.00,,,0.00,WUHU216HW,2013-11-01 03:00:00,
2013-10-31 23:03:00,64.4,56.0,29.62,South,180,16.3,16.3,74,0.00,,,0.00,WUHU216HW,2013-11-01 03:03:00,
2013-10-31 23:04:00,64.6,56.2,29.62,SSW,203,7.2,16.3,74,0.00,,,0.00,WUHU216HW,2013-11-01 03:04:00,
2013-10-31 23:05:00,64.6,56.2,29.62,SSW,203,9.2,16.3,74,0.00,,,0.00,WUHU216HW,2013-11-01 03:05:00,
2013-10-31 23:07:00,64.4,56.0,29.62,South,180,10.3,16.3,74,0.00,,,0.00,WUHU216HW,2013-11-01 03:07:00,
2013-10-31 23:08:00,64.4,56.0,29.62,SSW,203,11.4,16.3,74,0.00,,,0.00,WUHU216HW,2013-11-01 03:08:00,
2013-10-31 23:09:00,64.6,56.2,29.62,SSW,203,12.8,16.3,74,0.00,,,0.00,WUHU216HW,2013-11-01 03:09:00,
2013-10-31 23:10:00,64.6,56.2,29.62,SSW,203,12.8,16.3,74,0.00,,,0.00,WUHU216HW,2013-11-01 03:10:00,
2013-10-31 23:11:00,64.6,56.2,29.62,South,180,14.1,16.3,74,0.00,,,0.00,WUHU216HW,2013-11-01 03:11:00,
2013-10-31 23:12:00,64.6,56.2,29.61,SW,225,11.4,16.3,74,0.00,,,0.00,WUHU216HW,2013-11-01 03:12:00,
2013-10-31 23:13:00,64.6,55.8,29.61,South,180,11.0,14.1,73,0.00,,,0.00,WUHU216HW,2013-11-01 03:13:00,
2013-10-31 23:14:00,64.6,56.2,29.61,SW,225,7.8,14.1,74,0.00,,,0.00,WUHU216HW,2013-11-01 03:14:00,
2013-10-31 23:15:00,64.6,56.2,29.61,SW,225,7.8,14.1,74,0.00,,,0.00,WUHU216HW,2013-11-01 03:15:00,
2013-10-31 23:16:00,64.4,56.0,29.61,SSW,203,10.1,14.1,74,0.00,,,0.00,WUHU216HW,2013-11-01 03:16:00,
2013-10-31 23:17:00,64.6,56.2,29.60,South,180,7.8,14.1,74,0.00,,,0.00,WUHU216HW,2013-11-01 03:17:00,
2013-10-31 23:19:00,64.4,56.0,29.60,SSW,203,12.1,14.1,74,0.00,,,0.00,WUHU216HW,2013-11-01 03:19:00,
2013-10-31 23:20:00,64.6,56.2,29.60,SSW,203,15.7,15.7,74,0.00,,,0.00,WUHU216HW,2013-11-01 03:20:00,
2013-10-31 23:21:00,64.6,56.2,29.60,SSW,203,15.7,15.7,74,0.00,,,0.00,WUHU216HW,2013-11-01 03:21:00,
2013-10-31 23:22:00,64.8,56.0,29.60,SW,225,8.9,15.7,73,0.00,,,0.00,WUHU216HW,2013-11-01 03:22:00,
2013-10-31 23:24:00,64.8,56.0,29.60,South,180,10.1,15.7,73,0.00,,,0.00,WUHU216HW,2013-11-01 03:24:00,
2013-10-31 23:25:00,64.8,56.0,29.59,SSW,203,13.9,15.7,73,0.00,,,0.00,WUHU216HW,2013-11-01 03:25:00,
2013-10-31 23:26:00,64.8,56.0,29.59,SSW,203,13.9,15.7,73,0.00,,,0.00,WUHU216HW,2013-11-01 03:26:00,
2013-10-31 23:27:00,65.0,56.2,29.59,SW,225,15.7,15.7,73,0.00,,,0.00,WUHU216HW,2013-11-01 03:27:00,
2013-10-31 23:28:00,65.0,56.2,29.59,SW,225,15.7,15.7,73,0.00,,,0.00,WUHU216HW,2013-11-01 03:28:00,
2013-10-31 23:29:00,65.0,56.2,29.59,SSW,203,14.1,15.7,73,0.00,,,0.00,WUHU216HW,2013-11-01 03:29:00,
2013-10-31 23:31:00,65.0,56.2,29.60,SSW,203,15.4,15.7,73,0.00,,,0.00,WUHU216HW,2013-11-01 03:31:00,
2013-10-31 23:33:00,65.2,56.3,29.59,SSW,203,12.8,15.7,73,0.00,,,0.00,WUHU216HW,2013-11-01 03:33:00,
2013-10-31 23:34:00,65.2,56.3,29.59,SSW,203,15.9,15.9,73,0.00,,,0.00,WUHU216HW,2013-11-01 03:34:00,
2013-10-31 23:35:00,65.2,56.3,29.59,SSW,203,15.9,15.9,73,0.00,,,0.00,WUHU216HW,2013-11-01 03:35:00,
2013-10-31 23:36:00,65.2,56.3,29.59,SW,225,13.4,15.9,73,0.00,,,0.00,WUHU216HW,2013-11-01 03:36:00,
2013-10-31 23:37:00,65.2,56.3,29.59,SSW,203,11.0,15.9,73,0.00,,,0.00,WUHU216HW,2013-11-01 03:37:00,
2013-10-31 23:39:00,65.2,56.3,29.59,SSW,203,12.8,15.9,73,0.00,,,0.00,WUHU216HW,2013-11-01 03:39:00,
2013-10-31 23:40:00,65.2,56.3,29.58,SSW,203,11.0,15.9,73,0.00,,,0.00,WUHU216HW,2013-11-01 03:40:00,
2013-10-31 23:41:00,65.2,56.3,29.58,SSW,203,11.0,15.9,73,0.00,,,0.00,WUHU216HW,2013-11-01 03:41:00,
2013-10-31 23:42:00,65.2,56.3,29.58,SSE,158,11.9,15.9,73,0.00,,,0.00,WUHU216HW,2013-11-01 03:42:00,
2013-10-31 23:43:00,65.2,56.3,29.58,SW,225,12.1,15.9,73,0.00,,,0.00,WUHU216HW,2013-11-01 03:43:00,
2013-10-31 23:46:00,65.2,56.3,29.58,SSW,203,10.7,12.8,73,0.00,,,0.00,WUHU216HW,2013-11-01 03:46:00,
2013-10-31 23:47:00,65.2,56.3,29.58,SSW,203,15.0,15.0,73,0.00,,,0.00,WUHU216HW,2013-11-01 03:47:00,
2013-10-31 23:48:00,65.2,56.3,29.58,SSW,203,14.1,15.0,73,0.00,,,0.00,WUHU216HW,2013-11-01 03:48:00,
2013-10-31 23:49:00,65.2,56.3,29.58,South,180,12.1,15.0,73,0.00,,,0.00,WUHU216HW,2013-11-01 03:49:00,
2013-10-31 23:51:00,65.2,56.3,29.58,SSW,203,9.2,15.0,73,0.00,,,0.00,WUHU216HW,2013-11-01 03:51:00,
2013-10-31 23:53:00,65.2,56.3,29.58,SSE,158,12.3,15.0,73,0.00,,,0.00,WUHU216HW,2013-11-01 03:53:00,
2013-10-31 23:54:00,65.2,56.3,29.58,SSW,203,11.2,15.0,73,0.00,,,0.00,WUHU216HW,2013-11-01 03:54:00,
2013-10-31 23:55:00,65.3,56.4,29.58,South,180,13.6,16.1,73,0.00,,,0.00,WUHU216HW,2013-11-01 03:55:00,
2013-10-31 23:56:00,65.3,56.4,29.58,SSW,203,15.9,16.1,73,0.00,,,0.00,WUHU216HW,2013-11-01 03:56:00,
2013-10-31 23:58:00,65.3,56.4,29.58,SSW,203,12.8,16.1,73,0.00,,,0.00,WUHU216HW,2013-11-01 03:58:00,
2013-10-31 23:59:00,65.3,56.4,29.58,SSW,203,12.8,16.1,73,0.00,,,0.00,WUHU216HW,2013-11-01 03:59:00,